<?xml version="1.0" encoding="UTF-8" standalone="no" ?>
<gpx xmlns="http://www.topografix.com/GPX/1/1" xmlns:xsi="http://www.w3.org/2001/XMLSchema-instance" xsi:schemaLocation="http://www.topografix.com/GPX/1/1 http://www.topografix.com/GPX/1/1/gpx.xsd" version="1.1" creator="VisuGPX - https://www.visugpx.com">
  <metadata>
    <name>kzfdztffaz</name>
    <desc><![CDATA[dqvckhdDZcvdsFdssD]]></desc>
  </metadata>
  <trk>
    <name><![CDATA[--Millau-- OR-4299692:VO2 TRAIL 2015]]></name>
    <trkseg>
      <trkpt lat="44.11348" lon="3.08701">
        <ele>360</ele>
        <time>2016-03-07T11:42:06Z</time>
      </trkpt>
      <trkpt lat="44.11375" lon="3.08691">
        <ele>360</ele>
        <time>2016-03-07T11:44:06Z</time>
      </trkpt>
      <trkpt lat="44.11382" lon="3.08664">
        <ele>360</ele>
        <time>2016-03-07T11:46:06Z</time>
      </trkpt>
      <trkpt lat="44.11474" lon="3.0869">
        <ele>360</ele>
        <time>2016-03-07T11:48:06Z</time>
      </trkpt>
      <trkpt lat="44.11519" lon="3.08717">
        <ele>361</ele>
        <time>2016-03-07T11:50:06Z</time>
      </trkpt>
      <trkpt lat="44.11565" lon="3.08747">
        <ele>362</ele>
        <time>2016-03-07T11:52:06Z</time>
      </trkpt>
      <trkpt lat="44.1163" lon="3.08783">
        <ele>362</ele>
        <time>2016-03-07T11:54:06Z</time>
      </trkpt>
      <trkpt lat="44.117" lon="3.08829">
        <ele>362</ele>
        <time>2016-03-07T11:56:06Z</time>
      </trkpt>
      <trkpt lat="44.11738" lon="3.08859">
        <ele>363</ele>
        <time>2016-03-07T11:58:06Z</time>
      </trkpt>
      <trkpt lat="44.1176" lon="3.08885">
        <ele>363</ele>
        <time>2016-03-07T12:00:06Z</time>
      </trkpt>
      <trkpt lat="44.11797" lon="3.08931">
        <ele>364</ele>
        <time>2016-03-07T12:02:06Z</time>
      </trkpt>
      <trkpt lat="44.11833" lon="3.08977">
        <ele>366</ele>
        <time>2016-03-07T12:04:06Z</time>
      </trkpt>
      <trkpt lat="44.1186" lon="3.09019">
        <ele>366</ele>
        <time>2016-03-07T12:06:06Z</time>
      </trkpt>
      <trkpt lat="44.11891" lon="3.0906">
        <ele>365</ele>
        <time>2016-03-07T12:08:06Z</time>
      </trkpt>
      <trkpt lat="44.11919" lon="3.09099">
        <ele>365</ele>
        <time>2016-03-07T12:10:06Z</time>
      </trkpt>
      <trkpt lat="44.11944" lon="3.09132">
        <ele>367</ele>
        <time>2016-03-07T12:12:06Z</time>
      </trkpt>
      <trkpt lat="44.11964" lon="3.0916">
        <ele>367</ele>
        <time>2016-03-07T12:14:06Z</time>
      </trkpt>
      <trkpt lat="44.12001" lon="3.09222">
        <ele>371</ele>
        <time>2016-03-07T12:16:06Z</time>
      </trkpt>
      <trkpt lat="44.12023" lon="3.09269">
        <ele>373</ele>
        <time>2016-03-07T12:18:06Z</time>
      </trkpt>
      <trkpt lat="44.1206" lon="3.0932">
        <ele>370</ele>
        <time>2016-03-07T12:20:06Z</time>
      </trkpt>
      <trkpt lat="44.12091" lon="3.09377">
        <ele>369</ele>
        <time>2016-03-07T12:22:06Z</time>
      </trkpt>
      <trkpt lat="44.12122" lon="3.09428">
        <ele>368</ele>
        <time>2016-03-07T12:24:06Z</time>
      </trkpt>
      <trkpt lat="44.12149" lon="3.09482">
        <ele>368</ele>
        <time>2016-03-07T12:26:06Z</time>
      </trkpt>
      <trkpt lat="44.12171" lon="3.09518">
        <ele>368</ele>
        <time>2016-03-07T12:28:06Z</time>
      </trkpt>
      <trkpt lat="44.1224" lon="3.09607">
        <ele>370</ele>
        <time>2016-03-07T12:30:06Z</time>
      </trkpt>
      <trkpt lat="44.12266" lon="3.09639">
        <ele>371</ele>
        <time>2016-03-07T12:32:06Z</time>
      </trkpt>
      <trkpt lat="44.12305" lon="3.09686">
        <ele>371</ele>
        <time>2016-03-07T12:34:06Z</time>
      </trkpt>
      <trkpt lat="44.12339" lon="3.09727">
        <ele>370</ele>
        <time>2016-03-07T12:36:06Z</time>
      </trkpt>
      <trkpt lat="44.12356" lon="3.09762">
        <ele>371</ele>
        <time>2016-03-07T12:38:06Z</time>
      </trkpt>
      <trkpt lat="44.12373" lon="3.09802">
        <ele>372</ele>
        <time>2016-03-07T12:40:06Z</time>
      </trkpt>
      <trkpt lat="44.12382" lon="3.09831">
        <ele>373</ele>
        <time>2016-03-07T12:42:06Z</time>
      </trkpt>
      <trkpt lat="44.12398" lon="3.09891">
        <ele>374</ele>
        <time>2016-03-07T12:44:06Z</time>
      </trkpt>
      <trkpt lat="44.12412" lon="3.09927">
        <ele>375</ele>
        <time>2016-03-07T12:46:06Z</time>
      </trkpt>
      <trkpt lat="44.12438" lon="3.09975">
        <ele>377</ele>
        <time>2016-03-07T12:48:06Z</time>
      </trkpt>
      <trkpt lat="44.12471" lon="3.10008">
        <ele>375</ele>
        <time>2016-03-07T12:50:06Z</time>
      </trkpt>
      <trkpt lat="44.12504" lon="3.10035">
        <ele>374</ele>
        <time>2016-03-07T12:52:06Z</time>
      </trkpt>
      <trkpt lat="44.12558" lon="3.10052">
        <ele>373</ele>
        <time>2016-03-07T12:54:06Z</time>
      </trkpt>
      <trkpt lat="44.12632" lon="3.10065">
        <ele>372</ele>
        <time>2016-03-07T12:56:06Z</time>
      </trkpt>
      <trkpt lat="44.127" lon="3.1006">
        <ele>372</ele>
        <time>2016-03-07T12:58:06Z</time>
      </trkpt>
      <trkpt lat="44.12744" lon="3.10057">
        <ele>372</ele>
        <time>2016-03-07T13:00:06Z</time>
      </trkpt>
      <trkpt lat="44.12772" lon="3.10059">
        <ele>374</ele>
        <time>2016-03-07T13:02:06Z</time>
      </trkpt>
      <trkpt lat="44.12822" lon="3.10052">
        <ele>377</ele>
        <time>2016-03-07T13:04:06Z</time>
      </trkpt>
      <trkpt lat="44.12878" lon="3.10045">
        <ele>378</ele>
        <time>2016-03-07T13:06:06Z</time>
      </trkpt>
      <trkpt lat="44.12902" lon="3.10033">
        <ele>377</ele>
        <time>2016-03-07T13:08:06Z</time>
      </trkpt>
      <trkpt lat="44.12923" lon="3.10026">
        <ele>376</ele>
        <time>2016-03-07T13:10:06Z</time>
      </trkpt>
      <trkpt lat="44.12933" lon="3.10026">
        <ele>376</ele>
        <time>2016-03-07T13:12:06Z</time>
      </trkpt>
      <trkpt lat="44.12942" lon="3.10031">
        <ele>377</ele>
        <time>2016-03-07T13:14:06Z</time>
      </trkpt>
      <trkpt lat="44.12946" lon="3.10042">
        <ele>379</ele>
        <time>2016-03-07T13:16:06Z</time>
      </trkpt>
      <trkpt lat="44.12948" lon="3.10055">
        <ele>381</ele>
        <time>2016-03-07T13:18:06Z</time>
      </trkpt>
      <trkpt lat="44.12946" lon="3.10066">
        <ele>383</ele>
        <time>2016-03-07T13:20:06Z</time>
      </trkpt>
      <trkpt lat="44.1294" lon="3.10072">
        <ele>384</ele>
        <time>2016-03-07T13:22:06Z</time>
      </trkpt>
      <trkpt lat="44.12928" lon="3.10081">
        <ele>386</ele>
        <time>2016-03-07T13:24:06Z</time>
      </trkpt>
      <trkpt lat="44.12909" lon="3.10093">
        <ele>387</ele>
        <time>2016-03-07T13:26:06Z</time>
      </trkpt>
      <trkpt lat="44.12901" lon="3.10098">
        <ele>388</ele>
        <time>2016-03-07T13:28:06Z</time>
      </trkpt>
      <trkpt lat="44.12896" lon="3.10104">
        <ele>389</ele>
        <time>2016-03-07T13:30:06Z</time>
      </trkpt>
      <trkpt lat="44.12895" lon="3.10112">
        <ele>390</ele>
        <time>2016-03-07T13:32:06Z</time>
      </trkpt>
      <trkpt lat="44.12892" lon="3.10123">
        <ele>392</ele>
        <time>2016-03-07T13:34:06Z</time>
      </trkpt>
      <trkpt lat="44.12894" lon="3.10131">
        <ele>393</ele>
        <time>2016-03-07T13:36:06Z</time>
      </trkpt>
      <trkpt lat="44.12905" lon="3.10147">
        <ele>396</ele>
        <time>2016-03-07T13:38:06Z</time>
      </trkpt>
      <trkpt lat="44.12926" lon="3.10185">
        <ele>403</ele>
        <time>2016-03-07T13:40:06Z</time>
      </trkpt>
      <trkpt lat="44.1294" lon="3.10212">
        <ele>408</ele>
        <time>2016-03-07T13:42:06Z</time>
      </trkpt>
      <trkpt lat="44.12957" lon="3.10224">
        <ele>409</ele>
        <time>2016-03-07T13:44:06Z</time>
      </trkpt>
      <trkpt lat="44.12967" lon="3.10234">
        <ele>411</ele>
        <time>2016-03-07T13:46:06Z</time>
      </trkpt>
      <trkpt lat="44.12968" lon="3.1024">
        <ele>412</ele>
        <time>2016-03-07T13:48:06Z</time>
      </trkpt>
      <trkpt lat="44.12965" lon="3.10245">
        <ele>413</ele>
        <time>2016-03-07T13:50:06Z</time>
      </trkpt>
      <trkpt lat="44.12957" lon="3.10247">
        <ele>414</ele>
        <time>2016-03-07T13:52:06Z</time>
      </trkpt>
      <trkpt lat="44.12942" lon="3.10246">
        <ele>414</ele>
        <time>2016-03-07T13:54:06Z</time>
      </trkpt>
      <trkpt lat="44.12927" lon="3.10245">
        <ele>415</ele>
        <time>2016-03-07T13:56:06Z</time>
      </trkpt>
      <trkpt lat="44.12905" lon="3.10245">
        <ele>414</ele>
        <time>2016-03-07T13:58:06Z</time>
      </trkpt>
      <trkpt lat="44.12887" lon="3.1025">
        <ele>414</ele>
        <time>2016-03-07T14:00:06Z</time>
      </trkpt>
      <trkpt lat="44.12867" lon="3.10261">
        <ele>415</ele>
        <time>2016-03-07T14:02:06Z</time>
      </trkpt>
      <trkpt lat="44.12855" lon="3.10277">
        <ele>419</ele>
        <time>2016-03-07T14:04:06Z</time>
      </trkpt>
      <trkpt lat="44.12849" lon="3.1029">
        <ele>421</ele>
        <time>2016-03-07T14:06:06Z</time>
      </trkpt>
      <trkpt lat="44.12845" lon="3.10302">
        <ele>424</ele>
        <time>2016-03-07T14:08:06Z</time>
      </trkpt>
      <trkpt lat="44.1286" lon="3.10293">
        <ele>423</ele>
        <time>2016-03-07T14:10:06Z</time>
      </trkpt>
      <trkpt lat="44.12878" lon="3.10285">
        <ele>423</ele>
        <time>2016-03-07T14:12:06Z</time>
      </trkpt>
      <trkpt lat="44.12898" lon="3.10284">
        <ele>424</ele>
        <time>2016-03-07T14:14:06Z</time>
      </trkpt>
      <trkpt lat="44.12922" lon="3.1029">
        <ele>427</ele>
        <time>2016-03-07T14:16:06Z</time>
      </trkpt>
      <trkpt lat="44.12938" lon="3.10301">
        <ele>430</ele>
        <time>2016-03-07T14:18:06Z</time>
      </trkpt>
      <trkpt lat="44.12963" lon="3.10308">
        <ele>430</ele>
        <time>2016-03-07T14:20:06Z</time>
      </trkpt>
      <trkpt lat="44.12982" lon="3.10315">
        <ele>431</ele>
        <time>2016-03-07T14:22:06Z</time>
      </trkpt>
      <trkpt lat="44.1301" lon="3.10327">
        <ele>433</ele>
        <time>2016-03-07T14:24:06Z</time>
      </trkpt>
      <trkpt lat="44.13034" lon="3.10335">
        <ele>436</ele>
        <time>2016-03-07T14:26:06Z</time>
      </trkpt>
      <trkpt lat="44.13062" lon="3.10343">
        <ele>440</ele>
        <time>2016-03-07T14:28:06Z</time>
      </trkpt>
      <trkpt lat="44.13085" lon="3.1035">
        <ele>443</ele>
        <time>2016-03-07T14:30:06Z</time>
      </trkpt>
      <trkpt lat="44.13122" lon="3.10355">
        <ele>443</ele>
        <time>2016-03-07T14:32:06Z</time>
      </trkpt>
      <trkpt lat="44.13146" lon="3.10357">
        <ele>443</ele>
        <time>2016-03-07T14:34:06Z</time>
      </trkpt>
      <trkpt lat="44.13168" lon="3.1036">
        <ele>443</ele>
        <time>2016-03-07T14:36:06Z</time>
      </trkpt>
      <trkpt lat="44.13181" lon="3.10359">
        <ele>442</ele>
        <time>2016-03-07T14:38:06Z</time>
      </trkpt>
      <trkpt lat="44.13218" lon="3.10371">
        <ele>447</ele>
        <time>2016-03-07T14:40:06Z</time>
      </trkpt>
      <trkpt lat="44.13243" lon="3.10377">
        <ele>450</ele>
        <time>2016-03-07T14:42:06Z</time>
      </trkpt>
      <trkpt lat="44.13278" lon="3.10387">
        <ele>454</ele>
        <time>2016-03-07T14:44:06Z</time>
      </trkpt>
      <trkpt lat="44.13302" lon="3.10391">
        <ele>457</ele>
        <time>2016-03-07T14:46:06Z</time>
      </trkpt>
      <trkpt lat="44.13319" lon="3.10391">
        <ele>457</ele>
        <time>2016-03-07T14:48:06Z</time>
      </trkpt>
      <trkpt lat="44.13337" lon="3.10391">
        <ele>457</ele>
        <time>2016-03-07T14:50:06Z</time>
      </trkpt>
      <trkpt lat="44.13353" lon="3.10397">
        <ele>458</ele>
        <time>2016-03-07T14:52:06Z</time>
      </trkpt>
      <trkpt lat="44.1336" lon="3.10403">
        <ele>460</ele>
        <time>2016-03-07T14:54:06Z</time>
      </trkpt>
      <trkpt lat="44.13351" lon="3.10409">
        <ele>464</ele>
        <time>2016-03-07T14:56:06Z</time>
      </trkpt>
      <trkpt lat="44.1336" lon="3.1042">
        <ele>467</ele>
        <time>2016-03-07T14:58:06Z</time>
      </trkpt>
      <trkpt lat="44.13368" lon="3.10414">
        <ele>464</ele>
        <time>2016-03-07T15:00:06Z</time>
      </trkpt>
      <trkpt lat="44.1338" lon="3.10418">
        <ele>464</ele>
        <time>2016-03-07T15:02:06Z</time>
      </trkpt>
      <trkpt lat="44.13385" lon="3.10432">
        <ele>468</ele>
        <time>2016-03-07T15:04:06Z</time>
      </trkpt>
      <trkpt lat="44.13393" lon="3.10458">
        <ele>474</ele>
        <time>2016-03-07T15:06:06Z</time>
      </trkpt>
      <trkpt lat="44.13399" lon="3.10477">
        <ele>477</ele>
        <time>2016-03-07T15:08:06Z</time>
      </trkpt>
      <trkpt lat="44.13403" lon="3.10484">
        <ele>478</ele>
        <time>2016-03-07T15:10:06Z</time>
      </trkpt>
      <trkpt lat="44.13438" lon="3.10507">
        <ele>479</ele>
        <time>2016-03-07T15:12:06Z</time>
      </trkpt>
      <trkpt lat="44.13508" lon="3.10549">
        <ele>483</ele>
        <time>2016-03-07T15:14:06Z</time>
      </trkpt>
      <trkpt lat="44.13556" lon="3.10574">
        <ele>486</ele>
        <time>2016-03-07T15:16:06Z</time>
      </trkpt>
      <trkpt lat="44.13601" lon="3.10596">
        <ele>487</ele>
        <time>2016-03-07T15:18:06Z</time>
      </trkpt>
      <trkpt lat="44.13635" lon="3.10616">
        <ele>487</ele>
        <time>2016-03-07T15:20:06Z</time>
      </trkpt>
      <trkpt lat="44.1367" lon="3.10639">
        <ele>487</ele>
        <time>2016-03-07T15:22:06Z</time>
      </trkpt>
      <trkpt lat="44.13714" lon="3.10667">
        <ele>483</ele>
        <time>2016-03-07T15:24:06Z</time>
      </trkpt>
      <trkpt lat="44.13736" lon="3.10677">
        <ele>482</ele>
        <time>2016-03-07T15:26:06Z</time>
      </trkpt>
      <trkpt lat="44.13776" lon="3.10684">
        <ele>479</ele>
        <time>2016-03-07T15:28:06Z</time>
      </trkpt>
      <trkpt lat="44.13809" lon="3.1069">
        <ele>476</ele>
        <time>2016-03-07T15:30:06Z</time>
      </trkpt>
      <trkpt lat="44.1384" lon="3.10697">
        <ele>474</ele>
        <time>2016-03-07T15:32:06Z</time>
      </trkpt>
      <trkpt lat="44.1383" lon="3.10724">
        <ele>477</ele>
        <time>2016-03-07T15:34:06Z</time>
      </trkpt>
      <trkpt lat="44.13821" lon="3.10755">
        <ele>481</ele>
        <time>2016-03-07T15:36:06Z</time>
      </trkpt>
      <trkpt lat="44.13821" lon="3.1079">
        <ele>488</ele>
        <time>2016-03-07T15:38:06Z</time>
      </trkpt>
      <trkpt lat="44.13827" lon="3.10818">
        <ele>492</ele>
        <time>2016-03-07T15:40:06Z</time>
      </trkpt>
      <trkpt lat="44.13831" lon="3.10835">
        <ele>495</ele>
        <time>2016-03-07T15:42:06Z</time>
      </trkpt>
      <trkpt lat="44.13841" lon="3.10851">
        <ele>497</ele>
        <time>2016-03-07T15:44:06Z</time>
      </trkpt>
      <trkpt lat="44.13854" lon="3.10868">
        <ele>499</ele>
        <time>2016-03-07T15:46:06Z</time>
      </trkpt>
      <trkpt lat="44.1386" lon="3.10883">
        <ele>501</ele>
        <time>2016-03-07T15:48:06Z</time>
      </trkpt>
      <trkpt lat="44.1387" lon="3.10905">
        <ele>504</ele>
        <time>2016-03-07T15:50:06Z</time>
      </trkpt>
      <trkpt lat="44.13874" lon="3.10927">
        <ele>508</ele>
        <time>2016-03-07T15:52:06Z</time>
      </trkpt>
      <trkpt lat="44.13882" lon="3.10944">
        <ele>510</ele>
        <time>2016-03-07T15:54:06Z</time>
      </trkpt>
      <trkpt lat="44.13895" lon="3.10965">
        <ele>511</ele>
        <time>2016-03-07T15:56:06Z</time>
      </trkpt>
      <trkpt lat="44.13905" lon="3.10985">
        <ele>512</ele>
        <time>2016-03-07T15:58:06Z</time>
      </trkpt>
      <trkpt lat="44.1391" lon="3.11007">
        <ele>515</ele>
        <time>2016-03-07T16:00:06Z</time>
      </trkpt>
      <trkpt lat="44.13912" lon="3.11029">
        <ele>520</ele>
        <time>2016-03-07T16:02:06Z</time>
      </trkpt>
      <trkpt lat="44.13913" lon="3.11045">
        <ele>525</ele>
        <time>2016-03-07T16:04:06Z</time>
      </trkpt>
      <trkpt lat="44.13913" lon="3.11074">
        <ele>533</ele>
        <time>2016-03-07T16:06:06Z</time>
      </trkpt>
      <trkpt lat="44.13918" lon="3.11105">
        <ele>540</ele>
        <time>2016-03-07T16:08:06Z</time>
      </trkpt>
      <trkpt lat="44.13935" lon="3.11128">
        <ele>540</ele>
        <time>2016-03-07T16:10:06Z</time>
      </trkpt>
      <trkpt lat="44.13948" lon="3.11153">
        <ele>542</ele>
        <time>2016-03-07T16:12:06Z</time>
      </trkpt>
      <trkpt lat="44.13952" lon="3.1117">
        <ele>544</ele>
        <time>2016-03-07T16:14:06Z</time>
      </trkpt>
      <trkpt lat="44.1395" lon="3.11185">
        <ele>549</ele>
        <time>2016-03-07T16:16:06Z</time>
      </trkpt>
      <trkpt lat="44.13952" lon="3.11199">
        <ele>551</ele>
        <time>2016-03-07T16:18:06Z</time>
      </trkpt>
      <trkpt lat="44.13949" lon="3.11208">
        <ele>555</ele>
        <time>2016-03-07T16:20:06Z</time>
      </trkpt>
      <trkpt lat="44.13939" lon="3.11199">
        <ele>558</ele>
        <time>2016-03-07T16:22:06Z</time>
      </trkpt>
      <trkpt lat="44.13928" lon="3.11186">
        <ele>560</ele>
        <time>2016-03-07T16:24:06Z</time>
      </trkpt>
      <trkpt lat="44.13913" lon="3.11179">
        <ele>566</ele>
        <time>2016-03-07T16:26:06Z</time>
      </trkpt>
      <trkpt lat="44.13893" lon="3.11168">
        <ele>573</ele>
        <time>2016-03-07T16:28:06Z</time>
      </trkpt>
      <trkpt lat="44.13879" lon="3.11162">
        <ele>578</ele>
        <time>2016-03-07T16:30:06Z</time>
      </trkpt>
      <trkpt lat="44.13864" lon="3.1115">
        <ele>582</ele>
        <time>2016-03-07T16:32:06Z</time>
      </trkpt>
      <trkpt lat="44.1385" lon="3.11144">
        <ele>587</ele>
        <time>2016-03-07T16:34:06Z</time>
      </trkpt>
      <trkpt lat="44.13836" lon="3.11139">
        <ele>592</ele>
        <time>2016-03-07T16:36:06Z</time>
      </trkpt>
      <trkpt lat="44.13817" lon="3.1113">
        <ele>599</ele>
        <time>2016-03-07T16:38:06Z</time>
      </trkpt>
      <trkpt lat="44.13803" lon="3.11122">
        <ele>603</ele>
        <time>2016-03-07T16:40:06Z</time>
      </trkpt>
      <trkpt lat="44.13795" lon="3.11119">
        <ele>606</ele>
        <time>2016-03-07T16:42:06Z</time>
      </trkpt>
      <trkpt lat="44.13782" lon="3.11108">
        <ele>609</ele>
        <time>2016-03-07T16:44:06Z</time>
      </trkpt>
      <trkpt lat="44.13759" lon="3.11092">
        <ele>614</ele>
        <time>2016-03-07T16:46:06Z</time>
      </trkpt>
      <trkpt lat="44.13745" lon="3.11093">
        <ele>620</ele>
        <time>2016-03-07T16:48:06Z</time>
      </trkpt>
      <trkpt lat="44.13731" lon="3.1109">
        <ele>621</ele>
        <time>2016-03-07T16:50:06Z</time>
      </trkpt>
      <trkpt lat="44.13715" lon="3.11096">
        <ele>626</ele>
        <time>2016-03-07T16:52:06Z</time>
      </trkpt>
      <trkpt lat="44.13694" lon="3.11109">
        <ele>635</ele>
        <time>2016-03-07T16:54:06Z</time>
      </trkpt>
      <trkpt lat="44.13672" lon="3.1112">
        <ele>644</ele>
        <time>2016-03-07T16:56:06Z</time>
      </trkpt>
      <trkpt lat="44.1365" lon="3.11136">
        <ele>653</ele>
        <time>2016-03-07T16:58:06Z</time>
      </trkpt>
      <trkpt lat="44.13633" lon="3.11144">
        <ele>658</ele>
        <time>2016-03-07T17:00:06Z</time>
      </trkpt>
      <trkpt lat="44.13614" lon="3.11151">
        <ele>662</ele>
        <time>2016-03-07T17:02:06Z</time>
      </trkpt>
      <trkpt lat="44.13597" lon="3.11158">
        <ele>666</ele>
        <time>2016-03-07T17:04:06Z</time>
      </trkpt>
      <trkpt lat="44.13578" lon="3.11167">
        <ele>671</ele>
        <time>2016-03-07T17:06:06Z</time>
      </trkpt>
      <trkpt lat="44.13565" lon="3.11179">
        <ele>678</ele>
        <time>2016-03-07T17:08:06Z</time>
      </trkpt>
      <trkpt lat="44.13548" lon="3.11187">
        <ele>683</ele>
        <time>2016-03-07T17:10:06Z</time>
      </trkpt>
      <trkpt lat="44.13531" lon="3.11195">
        <ele>689</ele>
        <time>2016-03-07T17:12:06Z</time>
      </trkpt>
      <trkpt lat="44.13497" lon="3.11205">
        <ele>696</ele>
        <time>2016-03-07T17:14:06Z</time>
      </trkpt>
      <trkpt lat="44.13482" lon="3.11206">
        <ele>697</ele>
        <time>2016-03-07T17:16:06Z</time>
      </trkpt>
      <trkpt lat="44.1347" lon="3.11214">
        <ele>702</ele>
        <time>2016-03-07T17:18:06Z</time>
      </trkpt>
      <trkpt lat="44.13457" lon="3.11224">
        <ele>708</ele>
        <time>2016-03-07T17:20:06Z</time>
      </trkpt>
      <trkpt lat="44.13448" lon="3.1123">
        <ele>711</ele>
        <time>2016-03-07T17:22:06Z</time>
      </trkpt>
      <trkpt lat="44.13434" lon="3.11238">
        <ele>716</ele>
        <time>2016-03-07T17:24:06Z</time>
      </trkpt>
      <trkpt lat="44.13417" lon="3.11244">
        <ele>720</ele>
        <time>2016-03-07T17:26:06Z</time>
      </trkpt>
      <trkpt lat="44.13412" lon="3.11246">
        <ele>721</ele>
        <time>2016-03-07T17:28:06Z</time>
      </trkpt>
      <trkpt lat="44.13408" lon="3.1125">
        <ele>723</ele>
        <time>2016-03-07T17:30:06Z</time>
      </trkpt>
      <trkpt lat="44.13407" lon="3.11254">
        <ele>725</ele>
        <time>2016-03-07T17:32:06Z</time>
      </trkpt>
      <trkpt lat="44.1341" lon="3.11256">
        <ele>726</ele>
        <time>2016-03-07T17:34:06Z</time>
      </trkpt>
      <trkpt lat="44.13414" lon="3.11257">
        <ele>727</ele>
        <time>2016-03-07T17:36:06Z</time>
      </trkpt>
      <trkpt lat="44.13426" lon="3.11257">
        <ele>726</ele>
        <time>2016-03-07T17:38:06Z</time>
      </trkpt>
      <trkpt lat="44.13432" lon="3.11257">
        <ele>726</ele>
        <time>2016-03-07T17:40:06Z</time>
      </trkpt>
      <trkpt lat="44.13438" lon="3.11259">
        <ele>727</ele>
        <time>2016-03-07T17:42:06Z</time>
      </trkpt>
      <trkpt lat="44.13442" lon="3.11262">
        <ele>729</ele>
        <time>2016-03-07T17:44:06Z</time>
      </trkpt>
      <trkpt lat="44.13441" lon="3.11264">
        <ele>730</ele>
        <time>2016-03-07T17:46:06Z</time>
      </trkpt>
      <trkpt lat="44.13437" lon="3.11265">
        <ele>730</ele>
        <time>2016-03-07T17:48:06Z</time>
      </trkpt>
      <trkpt lat="44.13428" lon="3.11267">
        <ele>731</ele>
        <time>2016-03-07T17:50:06Z</time>
      </trkpt>
      <trkpt lat="44.13423" lon="3.1127">
        <ele>733</ele>
        <time>2016-03-07T17:52:06Z</time>
      </trkpt>
      <trkpt lat="44.13416" lon="3.11273">
        <ele>734</ele>
        <time>2016-03-07T17:54:06Z</time>
      </trkpt>
      <trkpt lat="44.1341" lon="3.11278">
        <ele>737</ele>
        <time>2016-03-07T17:56:06Z</time>
      </trkpt>
      <trkpt lat="44.13397" lon="3.11283">
        <ele>740</ele>
        <time>2016-03-07T17:58:06Z</time>
      </trkpt>
      <trkpt lat="44.13374" lon="3.11299">
        <ele>748</ele>
        <time>2016-03-07T18:00:06Z</time>
      </trkpt>
      <trkpt lat="44.13364" lon="3.11302">
        <ele>749</ele>
        <time>2016-03-07T18:02:06Z</time>
      </trkpt>
      <trkpt lat="44.13363" lon="3.11308">
        <ele>752</ele>
        <time>2016-03-07T18:04:06Z</time>
      </trkpt>
      <trkpt lat="44.13383" lon="3.1132">
        <ele>758</ele>
        <time>2016-03-07T18:06:06Z</time>
      </trkpt>
      <trkpt lat="44.13413" lon="3.11341">
        <ele>767</ele>
        <time>2016-03-07T18:08:06Z</time>
      </trkpt>
      <trkpt lat="44.13485" lon="3.11381">
        <ele>785</ele>
        <time>2016-03-07T18:10:06Z</time>
      </trkpt>
      <trkpt lat="44.13546" lon="3.11425">
        <ele>798</ele>
        <time>2016-03-07T18:12:06Z</time>
      </trkpt>
      <trkpt lat="44.13574" lon="3.11469">
        <ele>807</ele>
        <time>2016-03-07T18:14:06Z</time>
      </trkpt>
      <trkpt lat="44.13585" lon="3.11487">
        <ele>810</ele>
        <time>2016-03-07T18:16:06Z</time>
      </trkpt>
      <trkpt lat="44.13591" lon="3.11503">
        <ele>811</ele>
        <time>2016-03-07T18:18:06Z</time>
      </trkpt>
      <trkpt lat="44.13591" lon="3.11519">
        <ele>812</ele>
        <time>2016-03-07T18:20:06Z</time>
      </trkpt>
      <trkpt lat="44.13586" lon="3.11525">
        <ele>815</ele>
        <time>2016-03-07T18:22:06Z</time>
      </trkpt>
      <trkpt lat="44.13573" lon="3.11528">
        <ele>818</ele>
        <time>2016-03-07T18:24:06Z</time>
      </trkpt>
      <trkpt lat="44.13572" lon="3.11543">
        <ele>820</ele>
        <time>2016-03-07T18:26:06Z</time>
      </trkpt>
      <trkpt lat="44.13563" lon="3.11556">
        <ele>822</ele>
        <time>2016-03-07T18:28:06Z</time>
      </trkpt>
      <trkpt lat="44.13557" lon="3.11576">
        <ele>825</ele>
        <time>2016-03-07T18:30:06Z</time>
      </trkpt>
      <trkpt lat="44.13555" lon="3.11598">
        <ele>828</ele>
        <time>2016-03-07T18:32:06Z</time>
      </trkpt>
      <trkpt lat="44.13556" lon="3.11632">
        <ele>830</ele>
        <time>2016-03-07T18:34:06Z</time>
      </trkpt>
      <trkpt lat="44.13554" lon="3.11667">
        <ele>833</ele>
        <time>2016-03-07T18:36:06Z</time>
      </trkpt>
      <trkpt lat="44.13557" lon="3.11695">
        <ele>835</ele>
        <time>2016-03-07T18:38:06Z</time>
      </trkpt>
      <trkpt lat="44.13558" lon="3.11708">
        <ele>835</ele>
        <time>2016-03-07T18:40:06Z</time>
      </trkpt>
      <trkpt lat="44.13546" lon="3.11756">
        <ele>838</ele>
        <time>2016-03-07T18:42:06Z</time>
      </trkpt>
      <trkpt lat="44.13524" lon="3.11826">
        <ele>838</ele>
        <time>2016-03-07T18:44:06Z</time>
      </trkpt>
      <trkpt lat="44.13499" lon="3.1191">
        <ele>835</ele>
        <time>2016-03-07T18:46:06Z</time>
      </trkpt>
      <trkpt lat="44.13492" lon="3.11932">
        <ele>834</ele>
        <time>2016-03-07T18:48:06Z</time>
      </trkpt>
      <trkpt lat="44.13486" lon="3.11956">
        <ele>832</ele>
        <time>2016-03-07T18:50:06Z</time>
      </trkpt>
      <trkpt lat="44.13481" lon="3.11973">
        <ele>830</ele>
        <time>2016-03-07T18:52:06Z</time>
      </trkpt>
      <trkpt lat="44.13476" lon="3.11989">
        <ele>829</ele>
        <time>2016-03-07T18:54:06Z</time>
      </trkpt>
      <trkpt lat="44.13469" lon="3.12014">
        <ele>828</ele>
        <time>2016-03-07T18:56:06Z</time>
      </trkpt>
      <trkpt lat="44.13465" lon="3.12029">
        <ele>828</ele>
        <time>2016-03-07T18:58:06Z</time>
      </trkpt>
      <trkpt lat="44.13457" lon="3.12048">
        <ele>827</ele>
        <time>2016-03-07T19:00:06Z</time>
      </trkpt>
      <trkpt lat="44.13451" lon="3.12066">
        <ele>827</ele>
        <time>2016-03-07T19:02:06Z</time>
      </trkpt>
      <trkpt lat="44.1344" lon="3.12081">
        <ele>827</ele>
        <time>2016-03-07T19:04:06Z</time>
      </trkpt>
      <trkpt lat="44.13424" lon="3.12102">
        <ele>830</ele>
        <time>2016-03-07T19:06:06Z</time>
      </trkpt>
      <trkpt lat="44.1341" lon="3.12116">
        <ele>832</ele>
        <time>2016-03-07T19:08:06Z</time>
      </trkpt>
      <trkpt lat="44.13399" lon="3.1213">
        <ele>834</ele>
        <time>2016-03-07T19:10:06Z</time>
      </trkpt>
      <trkpt lat="44.13387" lon="3.12146">
        <ele>836</ele>
        <time>2016-03-07T19:12:06Z</time>
      </trkpt>
      <trkpt lat="44.13374" lon="3.12161">
        <ele>839</ele>
        <time>2016-03-07T19:14:06Z</time>
      </trkpt>
      <trkpt lat="44.13363" lon="3.12172">
        <ele>840</ele>
        <time>2016-03-07T19:16:06Z</time>
      </trkpt>
      <trkpt lat="44.13354" lon="3.12181">
        <ele>841</ele>
        <time>2016-03-07T19:18:06Z</time>
      </trkpt>
      <trkpt lat="44.13349" lon="3.12186">
        <ele>842</ele>
        <time>2016-03-07T19:20:06Z</time>
      </trkpt>
      <trkpt lat="44.13347" lon="3.12193">
        <ele>842</ele>
        <time>2016-03-07T19:22:06Z</time>
      </trkpt>
      <trkpt lat="44.13347" lon="3.12197">
        <ele>842</ele>
        <time>2016-03-07T19:24:06Z</time>
      </trkpt>
      <trkpt lat="44.13351" lon="3.12203">
        <ele>842</ele>
        <time>2016-03-07T19:26:06Z</time>
      </trkpt>
      <trkpt lat="44.1336" lon="3.1221">
        <ele>841</ele>
        <time>2016-03-07T19:28:06Z</time>
      </trkpt>
      <trkpt lat="44.13368" lon="3.12216">
        <ele>841</ele>
        <time>2016-03-07T19:30:06Z</time>
      </trkpt>
      <trkpt lat="44.13391" lon="3.12235">
        <ele>840</ele>
        <time>2016-03-07T19:32:06Z</time>
      </trkpt>
      <trkpt lat="44.13411" lon="3.1225">
        <ele>839</ele>
        <time>2016-03-07T19:34:06Z</time>
      </trkpt>
      <trkpt lat="44.13426" lon="3.12258">
        <ele>838</ele>
        <time>2016-03-07T19:36:06Z</time>
      </trkpt>
      <trkpt lat="44.1344" lon="3.12265">
        <ele>838</ele>
        <time>2016-03-07T19:38:06Z</time>
      </trkpt>
      <trkpt lat="44.13449" lon="3.12272">
        <ele>837</ele>
        <time>2016-03-07T19:40:06Z</time>
      </trkpt>
      <trkpt lat="44.13455" lon="3.1228">
        <ele>837</ele>
        <time>2016-03-07T19:42:06Z</time>
      </trkpt>
      <trkpt lat="44.13458" lon="3.1229">
        <ele>837</ele>
        <time>2016-03-07T19:44:06Z</time>
      </trkpt>
      <trkpt lat="44.13459" lon="3.12301">
        <ele>837</ele>
        <time>2016-03-07T19:46:06Z</time>
      </trkpt>
      <trkpt lat="44.13459" lon="3.1231">
        <ele>837</ele>
        <time>2016-03-07T19:48:06Z</time>
      </trkpt>
      <trkpt lat="44.13457" lon="3.12321">
        <ele>837</ele>
        <time>2016-03-07T19:50:06Z</time>
      </trkpt>
      <trkpt lat="44.13455" lon="3.1233">
        <ele>838</ele>
        <time>2016-03-07T19:52:06Z</time>
      </trkpt>
      <trkpt lat="44.13449" lon="3.12341">
        <ele>838</ele>
        <time>2016-03-07T19:54:06Z</time>
      </trkpt>
      <trkpt lat="44.13444" lon="3.1235">
        <ele>838</ele>
        <time>2016-03-07T19:56:06Z</time>
      </trkpt>
      <trkpt lat="44.13437" lon="3.12357">
        <ele>838</ele>
        <time>2016-03-07T19:58:06Z</time>
      </trkpt>
      <trkpt lat="44.13431" lon="3.12368">
        <ele>838</ele>
        <time>2016-03-07T20:00:06Z</time>
      </trkpt>
      <trkpt lat="44.13424" lon="3.12383">
        <ele>839</ele>
        <time>2016-03-07T20:02:06Z</time>
      </trkpt>
      <trkpt lat="44.13419" lon="3.12398">
        <ele>839</ele>
        <time>2016-03-07T20:04:06Z</time>
      </trkpt>
      <trkpt lat="44.13415" lon="3.12419">
        <ele>839</ele>
        <time>2016-03-07T20:06:06Z</time>
      </trkpt>
      <trkpt lat="44.13414" lon="3.12442">
        <ele>839</ele>
        <time>2016-03-07T20:08:06Z</time>
      </trkpt>
      <trkpt lat="44.13413" lon="3.12469">
        <ele>839</ele>
        <time>2016-03-07T20:10:06Z</time>
      </trkpt>
      <trkpt lat="44.13411" lon="3.12491">
        <ele>839</ele>
        <time>2016-03-07T20:12:06Z</time>
      </trkpt>
      <trkpt lat="44.13408" lon="3.12508">
        <ele>839</ele>
        <time>2016-03-07T20:14:06Z</time>
      </trkpt>
      <trkpt lat="44.13403" lon="3.12528">
        <ele>840</ele>
        <time>2016-03-07T20:16:06Z</time>
      </trkpt>
      <trkpt lat="44.134" lon="3.12539">
        <ele>840</ele>
        <time>2016-03-07T20:18:06Z</time>
      </trkpt>
      <trkpt lat="44.13393" lon="3.12554">
        <ele>839</ele>
        <time>2016-03-07T20:20:06Z</time>
      </trkpt>
      <trkpt lat="44.13386" lon="3.12568">
        <ele>839</ele>
        <time>2016-03-07T20:22:06Z</time>
      </trkpt>
      <trkpt lat="44.13379" lon="3.12592">
        <ele>840</ele>
        <time>2016-03-07T20:24:06Z</time>
      </trkpt>
      <trkpt lat="44.13376" lon="3.12639">
        <ele>841</ele>
        <time>2016-03-07T20:26:06Z</time>
      </trkpt>
      <trkpt lat="44.13376" lon="3.12689">
        <ele>842</ele>
        <time>2016-03-07T20:28:06Z</time>
      </trkpt>
      <trkpt lat="44.13374" lon="3.12729">
        <ele>841</ele>
        <time>2016-03-07T20:30:06Z</time>
      </trkpt>
      <trkpt lat="44.13372" lon="3.12743">
        <ele>841</ele>
        <time>2016-03-07T20:32:06Z</time>
      </trkpt>
      <trkpt lat="44.13371" lon="3.12786">
        <ele>842</ele>
        <time>2016-03-07T20:34:06Z</time>
      </trkpt>
      <trkpt lat="44.1337" lon="3.12823">
        <ele>842</ele>
        <time>2016-03-07T20:36:06Z</time>
      </trkpt>
      <trkpt lat="44.13376" lon="3.12847">
        <ele>842</ele>
        <time>2016-03-07T20:38:06Z</time>
      </trkpt>
      <trkpt lat="44.13386" lon="3.12874">
        <ele>842</ele>
        <time>2016-03-07T20:40:06Z</time>
      </trkpt>
      <trkpt lat="44.13391" lon="3.12895">
        <ele>842</ele>
        <time>2016-03-07T20:42:06Z</time>
      </trkpt>
      <trkpt lat="44.13388" lon="3.12936">
        <ele>841</ele>
        <time>2016-03-07T20:44:06Z</time>
      </trkpt>
      <trkpt lat="44.13383" lon="3.12958">
        <ele>840</ele>
        <time>2016-03-07T20:46:06Z</time>
      </trkpt>
      <trkpt lat="44.13383" lon="3.12987">
        <ele>839</ele>
        <time>2016-03-07T20:48:06Z</time>
      </trkpt>
      <trkpt lat="44.13375" lon="3.13029">
        <ele>837</ele>
        <time>2016-03-07T20:50:06Z</time>
      </trkpt>
      <trkpt lat="44.13372" lon="3.13058">
        <ele>836</ele>
        <time>2016-03-07T20:52:06Z</time>
      </trkpt>
      <trkpt lat="44.13369" lon="3.13093">
        <ele>834</ele>
        <time>2016-03-07T20:54:06Z</time>
      </trkpt>
      <trkpt lat="44.13365" lon="3.13129">
        <ele>834</ele>
        <time>2016-03-07T20:56:06Z</time>
      </trkpt>
      <trkpt lat="44.13361" lon="3.13172">
        <ele>834</ele>
        <time>2016-03-07T20:58:06Z</time>
      </trkpt>
      <trkpt lat="44.13358" lon="3.13205">
        <ele>832</ele>
        <time>2016-03-07T21:00:06Z</time>
      </trkpt>
      <trkpt lat="44.13368" lon="3.1324">
        <ele>832</ele>
        <time>2016-03-07T21:02:06Z</time>
      </trkpt>
      <trkpt lat="44.13371" lon="3.13268">
        <ele>831</ele>
        <time>2016-03-07T21:04:06Z</time>
      </trkpt>
      <trkpt lat="44.13369" lon="3.13308">
        <ele>827</ele>
        <time>2016-03-07T21:06:06Z</time>
      </trkpt>
      <trkpt lat="44.13377" lon="3.1333">
        <ele>826</ele>
        <time>2016-03-07T21:08:06Z</time>
      </trkpt>
      <trkpt lat="44.13386" lon="3.13368">
        <ele>823</ele>
        <time>2016-03-07T21:10:06Z</time>
      </trkpt>
      <trkpt lat="44.13394" lon="3.13397">
        <ele>822</ele>
        <time>2016-03-07T21:12:06Z</time>
      </trkpt>
      <trkpt lat="44.134" lon="3.13414">
        <ele>821</ele>
        <time>2016-03-07T21:14:06Z</time>
      </trkpt>
      <trkpt lat="44.13395" lon="3.13423">
        <ele>820</ele>
        <time>2016-03-07T21:16:06Z</time>
      </trkpt>
      <trkpt lat="44.13388" lon="3.1343">
        <ele>819</ele>
        <time>2016-03-07T21:18:06Z</time>
      </trkpt>
      <trkpt lat="44.13384" lon="3.13421">
        <ele>819</ele>
        <time>2016-03-07T21:20:06Z</time>
      </trkpt>
      <trkpt lat="44.13376" lon="3.13415">
        <ele>818</ele>
        <time>2016-03-07T21:22:06Z</time>
      </trkpt>
      <trkpt lat="44.13369" lon="3.13405">
        <ele>818</ele>
        <time>2016-03-07T21:24:06Z</time>
      </trkpt>
      <trkpt lat="44.13354" lon="3.13396">
        <ele>817</ele>
        <time>2016-03-07T21:26:06Z</time>
      </trkpt>
      <trkpt lat="44.13337" lon="3.13398">
        <ele>815</ele>
        <time>2016-03-07T21:28:06Z</time>
      </trkpt>
      <trkpt lat="44.13308" lon="3.13404">
        <ele>814</ele>
        <time>2016-03-07T21:30:06Z</time>
      </trkpt>
      <trkpt lat="44.13281" lon="3.13413">
        <ele>813</ele>
        <time>2016-03-07T21:32:06Z</time>
      </trkpt>
      <trkpt lat="44.13229" lon="3.13427">
        <ele>812</ele>
        <time>2016-03-07T21:34:06Z</time>
      </trkpt>
      <trkpt lat="44.13186" lon="3.13443">
        <ele>812</ele>
        <time>2016-03-07T21:36:06Z</time>
      </trkpt>
      <trkpt lat="44.13166" lon="3.13456">
        <ele>812</ele>
        <time>2016-03-07T21:38:06Z</time>
      </trkpt>
      <trkpt lat="44.13166" lon="3.13426">
        <ele>812</ele>
        <time>2016-03-07T21:40:06Z</time>
      </trkpt>
      <trkpt lat="44.13163" lon="3.13403">
        <ele>812</ele>
        <time>2016-03-07T21:42:06Z</time>
      </trkpt>
      <trkpt lat="44.13146" lon="3.13384">
        <ele>813</ele>
        <time>2016-03-07T21:44:06Z</time>
      </trkpt>
      <trkpt lat="44.13131" lon="3.13359">
        <ele>813</ele>
        <time>2016-03-07T21:46:06Z</time>
      </trkpt>
      <trkpt lat="44.13121" lon="3.13292">
        <ele>813</ele>
        <time>2016-03-07T21:48:06Z</time>
      </trkpt>
      <trkpt lat="44.13127" lon="3.13256">
        <ele>812</ele>
        <time>2016-03-07T21:50:06Z</time>
      </trkpt>
      <trkpt lat="44.13128" lon="3.13231">
        <ele>812</ele>
        <time>2016-03-07T21:52:06Z</time>
      </trkpt>
      <trkpt lat="44.13137" lon="3.13198">
        <ele>812</ele>
        <time>2016-03-07T21:54:06Z</time>
      </trkpt>
      <trkpt lat="44.13138" lon="3.13175">
        <ele>811</ele>
        <time>2016-03-07T21:56:06Z</time>
      </trkpt>
      <trkpt lat="44.13112" lon="3.13144">
        <ele>812</ele>
        <time>2016-03-07T21:58:06Z</time>
      </trkpt>
      <trkpt lat="44.13098" lon="3.13108">
        <ele>812</ele>
        <time>2016-03-07T22:00:06Z</time>
      </trkpt>
      <trkpt lat="44.13097" lon="3.13066">
        <ele>812</ele>
        <time>2016-03-07T22:02:06Z</time>
      </trkpt>
      <trkpt lat="44.13069" lon="3.1304">
        <ele>813</ele>
        <time>2016-03-07T22:04:06Z</time>
      </trkpt>
      <trkpt lat="44.13056" lon="3.13014">
        <ele>815</ele>
        <time>2016-03-07T22:06:06Z</time>
      </trkpt>
      <trkpt lat="44.13047" lon="3.12978">
        <ele>815</ele>
        <time>2016-03-07T22:08:06Z</time>
      </trkpt>
      <trkpt lat="44.13037" lon="3.12977">
        <ele>816</ele>
        <time>2016-03-07T22:10:06Z</time>
      </trkpt>
      <trkpt lat="44.13023" lon="3.1295">
        <ele>817</ele>
        <time>2016-03-07T22:12:06Z</time>
      </trkpt>
      <trkpt lat="44.13015" lon="3.12919">
        <ele>816</ele>
        <time>2016-03-07T22:14:06Z</time>
      </trkpt>
      <trkpt lat="44.13" lon="3.1289">
        <ele>817</ele>
        <time>2016-03-07T22:16:06Z</time>
      </trkpt>
      <trkpt lat="44.12986" lon="3.12872">
        <ele>817</ele>
        <time>2016-03-07T22:18:06Z</time>
      </trkpt>
      <trkpt lat="44.12963" lon="3.12862">
        <ele>817</ele>
        <time>2016-03-07T22:20:06Z</time>
      </trkpt>
      <trkpt lat="44.12927" lon="3.12851">
        <ele>817</ele>
        <time>2016-03-07T22:22:06Z</time>
      </trkpt>
      <trkpt lat="44.12896" lon="3.12846">
        <ele>817</ele>
        <time>2016-03-07T22:24:06Z</time>
      </trkpt>
      <trkpt lat="44.12867" lon="3.12843">
        <ele>818</ele>
        <time>2016-03-07T22:26:06Z</time>
      </trkpt>
      <trkpt lat="44.12841" lon="3.12846">
        <ele>818</ele>
        <time>2016-03-07T22:28:06Z</time>
      </trkpt>
      <trkpt lat="44.12824" lon="3.12853">
        <ele>819</ele>
        <time>2016-03-07T22:30:06Z</time>
      </trkpt>
      <trkpt lat="44.12819" lon="3.12869">
        <ele>820</ele>
        <time>2016-03-07T22:32:06Z</time>
      </trkpt>
      <trkpt lat="44.12816" lon="3.12907">
        <ele>821</ele>
        <time>2016-03-07T22:34:06Z</time>
      </trkpt>
      <trkpt lat="44.12811" lon="3.12937">
        <ele>822</ele>
        <time>2016-03-07T22:36:06Z</time>
      </trkpt>
      <trkpt lat="44.12806" lon="3.12965">
        <ele>823</ele>
        <time>2016-03-07T22:38:06Z</time>
      </trkpt>
      <trkpt lat="44.12797" lon="3.12989">
        <ele>823</ele>
        <time>2016-03-07T22:40:06Z</time>
      </trkpt>
      <trkpt lat="44.12776" lon="3.13004">
        <ele>824</ele>
        <time>2016-03-07T22:42:06Z</time>
      </trkpt>
      <trkpt lat="44.12749" lon="3.13021">
        <ele>824</ele>
        <time>2016-03-07T22:44:06Z</time>
      </trkpt>
      <trkpt lat="44.12722" lon="3.13035">
        <ele>824</ele>
        <time>2016-03-07T22:46:06Z</time>
      </trkpt>
      <trkpt lat="44.12712" lon="3.13032">
        <ele>824</ele>
        <time>2016-03-07T22:48:06Z</time>
      </trkpt>
      <trkpt lat="44.12699" lon="3.13031">
        <ele>825</ele>
        <time>2016-03-07T22:50:06Z</time>
      </trkpt>
      <trkpt lat="44.12689" lon="3.13031">
        <ele>825</ele>
        <time>2016-03-07T22:52:06Z</time>
      </trkpt>
      <trkpt lat="44.1268" lon="3.13028">
        <ele>825</ele>
        <time>2016-03-07T22:54:06Z</time>
      </trkpt>
      <trkpt lat="44.12678" lon="3.13019">
        <ele>826</ele>
        <time>2016-03-07T22:56:06Z</time>
      </trkpt>
      <trkpt lat="44.12679" lon="3.13001">
        <ele>827</ele>
        <time>2016-03-07T22:58:06Z</time>
      </trkpt>
      <trkpt lat="44.12671" lon="3.12993">
        <ele>827</ele>
        <time>2016-03-07T23:00:06Z</time>
      </trkpt>
      <trkpt lat="44.12661" lon="3.12975">
        <ele>828</ele>
        <time>2016-03-07T23:02:06Z</time>
      </trkpt>
      <trkpt lat="44.12658" lon="3.1296">
        <ele>828</ele>
        <time>2016-03-07T23:04:06Z</time>
      </trkpt>
      <trkpt lat="44.12656" lon="3.12945">
        <ele>829</ele>
        <time>2016-03-07T23:06:06Z</time>
      </trkpt>
      <trkpt lat="44.12657" lon="3.12928">
        <ele>830</ele>
        <time>2016-03-07T23:08:06Z</time>
      </trkpt>
      <trkpt lat="44.12654" lon="3.12917">
        <ele>830</ele>
        <time>2016-03-07T23:10:06Z</time>
      </trkpt>
      <trkpt lat="44.12643" lon="3.12912">
        <ele>830</ele>
        <time>2016-03-07T23:12:06Z</time>
      </trkpt>
      <trkpt lat="44.12628" lon="3.12901">
        <ele>831</ele>
        <time>2016-03-07T23:14:06Z</time>
      </trkpt>
      <trkpt lat="44.12618" lon="3.1289">
        <ele>832</ele>
        <time>2016-03-07T23:16:06Z</time>
      </trkpt>
      <trkpt lat="44.12604" lon="3.1288">
        <ele>833</ele>
        <time>2016-03-07T23:18:06Z</time>
      </trkpt>
      <trkpt lat="44.12594" lon="3.12869">
        <ele>834</ele>
        <time>2016-03-07T23:20:06Z</time>
      </trkpt>
      <trkpt lat="44.1259" lon="3.12858">
        <ele>835</ele>
        <time>2016-03-07T23:22:06Z</time>
      </trkpt>
      <trkpt lat="44.12588" lon="3.12846">
        <ele>836</ele>
        <time>2016-03-07T23:24:06Z</time>
      </trkpt>
      <trkpt lat="44.12578" lon="3.12852">
        <ele>836</ele>
        <time>2016-03-07T23:26:06Z</time>
      </trkpt>
      <trkpt lat="44.12568" lon="3.12844">
        <ele>836</ele>
        <time>2016-03-07T23:28:06Z</time>
      </trkpt>
      <trkpt lat="44.12561" lon="3.12832">
        <ele>837</ele>
        <time>2016-03-07T23:30:06Z</time>
      </trkpt>
      <trkpt lat="44.1255" lon="3.12822">
        <ele>838</ele>
        <time>2016-03-07T23:32:06Z</time>
      </trkpt>
      <trkpt lat="44.12546" lon="3.1281">
        <ele>838</ele>
        <time>2016-03-07T23:34:06Z</time>
      </trkpt>
      <trkpt lat="44.12549" lon="3.12798">
        <ele>839</ele>
        <time>2016-03-07T23:36:06Z</time>
      </trkpt>
      <trkpt lat="44.1254" lon="3.12786">
        <ele>840</ele>
        <time>2016-03-07T23:38:06Z</time>
      </trkpt>
      <trkpt lat="44.12538" lon="3.12765">
        <ele>841</ele>
        <time>2016-03-07T23:40:06Z</time>
      </trkpt>
      <trkpt lat="44.12533" lon="3.12744">
        <ele>842</ele>
        <time>2016-03-07T23:42:06Z</time>
      </trkpt>
      <trkpt lat="44.12517" lon="3.12753">
        <ele>842</ele>
        <time>2016-03-07T23:44:06Z</time>
      </trkpt>
      <trkpt lat="44.1249" lon="3.12769">
        <ele>842</ele>
        <time>2016-03-07T23:46:06Z</time>
      </trkpt>
      <trkpt lat="44.12468" lon="3.1277">
        <ele>842</ele>
        <time>2016-03-07T23:48:06Z</time>
      </trkpt>
      <trkpt lat="44.12458" lon="3.12768">
        <ele>842</ele>
        <time>2016-03-07T23:50:06Z</time>
      </trkpt>
      <trkpt lat="44.12446" lon="3.12754">
        <ele>842</ele>
        <time>2016-03-07T23:52:06Z</time>
      </trkpt>
      <trkpt lat="44.12435" lon="3.1274">
        <ele>842</ele>
        <time>2016-03-07T23:54:06Z</time>
      </trkpt>
      <trkpt lat="44.12425" lon="3.12731">
        <ele>843</ele>
        <time>2016-03-07T23:56:06Z</time>
      </trkpt>
      <trkpt lat="44.12407" lon="3.12716">
        <ele>843</ele>
        <time>2016-03-07T23:58:06Z</time>
      </trkpt>
      <trkpt lat="44.12397" lon="3.12713">
        <ele>843</ele>
        <time>2016-03-08T00:00:06Z</time>
      </trkpt>
      <trkpt lat="44.1239" lon="3.12714">
        <ele>843</ele>
        <time>2016-03-08T00:02:06Z</time>
      </trkpt>
      <trkpt lat="44.1237" lon="3.12697">
        <ele>844</ele>
        <time>2016-03-08T00:04:06Z</time>
      </trkpt>
      <trkpt lat="44.12373" lon="3.12684">
        <ele>844</ele>
        <time>2016-03-08T00:06:06Z</time>
      </trkpt>
      <trkpt lat="44.12374" lon="3.12678">
        <ele>844</ele>
        <time>2016-03-08T00:08:06Z</time>
      </trkpt>
      <trkpt lat="44.12374" lon="3.12669">
        <ele>844</ele>
        <time>2016-03-08T00:10:06Z</time>
      </trkpt>
      <trkpt lat="44.12372" lon="3.12667">
        <ele>845</ele>
        <time>2016-03-08T00:12:06Z</time>
      </trkpt>
      <trkpt lat="44.12369" lon="3.12665">
        <ele>845</ele>
        <time>2016-03-08T00:14:06Z</time>
      </trkpt>
      <trkpt lat="44.12365" lon="3.12655">
        <ele>845</ele>
        <time>2016-03-08T00:16:06Z</time>
      </trkpt>
      <trkpt lat="44.1236" lon="3.12649">
        <ele>845</ele>
        <time>2016-03-08T00:18:06Z</time>
      </trkpt>
      <trkpt lat="44.12355" lon="3.12646">
        <ele>845</ele>
        <time>2016-03-08T00:20:06Z</time>
      </trkpt>
      <trkpt lat="44.12348" lon="3.12641">
        <ele>845</ele>
        <time>2016-03-08T00:22:06Z</time>
      </trkpt>
      <trkpt lat="44.12344" lon="3.12633">
        <ele>845</ele>
        <time>2016-03-08T00:24:06Z</time>
      </trkpt>
      <trkpt lat="44.12336" lon="3.12628">
        <ele>845</ele>
        <time>2016-03-08T00:26:06Z</time>
      </trkpt>
      <trkpt lat="44.12334" lon="3.12618">
        <ele>845</ele>
        <time>2016-03-08T00:28:06Z</time>
      </trkpt>
      <trkpt lat="44.12333" lon="3.12598">
        <ele>845</ele>
        <time>2016-03-08T00:30:06Z</time>
      </trkpt>
      <trkpt lat="44.12328" lon="3.12579">
        <ele>846</ele>
        <time>2016-03-08T00:32:06Z</time>
      </trkpt>
      <trkpt lat="44.1232" lon="3.12553">
        <ele>846</ele>
        <time>2016-03-08T00:34:06Z</time>
      </trkpt>
      <trkpt lat="44.12311" lon="3.12523">
        <ele>847</ele>
        <time>2016-03-08T00:36:06Z</time>
      </trkpt>
      <trkpt lat="44.12301" lon="3.12497">
        <ele>847</ele>
        <time>2016-03-08T00:38:06Z</time>
      </trkpt>
      <trkpt lat="44.12293" lon="3.12473">
        <ele>847</ele>
        <time>2016-03-08T00:40:06Z</time>
      </trkpt>
      <trkpt lat="44.12286" lon="3.12448">
        <ele>846</ele>
        <time>2016-03-08T00:42:06Z</time>
      </trkpt>
      <trkpt lat="44.12281" lon="3.12426">
        <ele>846</ele>
        <time>2016-03-08T00:44:06Z</time>
      </trkpt>
      <trkpt lat="44.12277" lon="3.124">
        <ele>846</ele>
        <time>2016-03-08T00:46:06Z</time>
      </trkpt>
      <trkpt lat="44.12271" lon="3.12379">
        <ele>845</ele>
        <time>2016-03-08T00:48:06Z</time>
      </trkpt>
      <trkpt lat="44.12267" lon="3.12365">
        <ele>845</ele>
        <time>2016-03-08T00:50:06Z</time>
      </trkpt>
      <trkpt lat="44.12264" lon="3.12352">
        <ele>845</ele>
        <time>2016-03-08T00:52:06Z</time>
      </trkpt>
      <trkpt lat="44.12276" lon="3.12349">
        <ele>844</ele>
        <time>2016-03-08T00:54:06Z</time>
      </trkpt>
      <trkpt lat="44.12289" lon="3.12354">
        <ele>844</ele>
        <time>2016-03-08T00:56:06Z</time>
      </trkpt>
      <trkpt lat="44.12315" lon="3.12347">
        <ele>843</ele>
        <time>2016-03-08T00:58:06Z</time>
      </trkpt>
      <trkpt lat="44.1234" lon="3.12333">
        <ele>842</ele>
        <time>2016-03-08T01:00:06Z</time>
      </trkpt>
      <trkpt lat="44.12361" lon="3.12324">
        <ele>843</ele>
        <time>2016-03-08T01:02:06Z</time>
      </trkpt>
      <trkpt lat="44.12379" lon="3.12318">
        <ele>844</ele>
        <time>2016-03-08T01:04:06Z</time>
      </trkpt>
      <trkpt lat="44.12403" lon="3.12318">
        <ele>845</ele>
        <time>2016-03-08T01:06:06Z</time>
      </trkpt>
      <trkpt lat="44.12427" lon="3.12331">
        <ele>845</ele>
        <time>2016-03-08T01:08:06Z</time>
      </trkpt>
      <trkpt lat="44.1244" lon="3.12334">
        <ele>844</ele>
        <time>2016-03-08T01:10:06Z</time>
      </trkpt>
      <trkpt lat="44.12454" lon="3.12335">
        <ele>844</ele>
        <time>2016-03-08T01:12:06Z</time>
      </trkpt>
      <trkpt lat="44.12478" lon="3.12323">
        <ele>844</ele>
        <time>2016-03-08T01:14:06Z</time>
      </trkpt>
      <trkpt lat="44.12491" lon="3.12327">
        <ele>844</ele>
        <time>2016-03-08T01:16:06Z</time>
      </trkpt>
      <trkpt lat="44.12517" lon="3.12332">
        <ele>842</ele>
        <time>2016-03-08T01:18:06Z</time>
      </trkpt>
      <trkpt lat="44.1255" lon="3.12329">
        <ele>840</ele>
        <time>2016-03-08T01:20:06Z</time>
      </trkpt>
      <trkpt lat="44.12576" lon="3.12315">
        <ele>839</ele>
        <time>2016-03-08T01:22:06Z</time>
      </trkpt>
      <trkpt lat="44.12597" lon="3.123">
        <ele>838</ele>
        <time>2016-03-08T01:24:06Z</time>
      </trkpt>
      <trkpt lat="44.12627" lon="3.12274">
        <ele>836</ele>
        <time>2016-03-08T01:26:06Z</time>
      </trkpt>
      <trkpt lat="44.12658" lon="3.12249">
        <ele>834</ele>
        <time>2016-03-08T01:28:06Z</time>
      </trkpt>
      <trkpt lat="44.12666" lon="3.12238">
        <ele>834</ele>
        <time>2016-03-08T01:30:06Z</time>
      </trkpt>
      <trkpt lat="44.12678" lon="3.1223">
        <ele>833</ele>
        <time>2016-03-08T01:32:06Z</time>
      </trkpt>
      <trkpt lat="44.12693" lon="3.12198">
        <ele>833</ele>
        <time>2016-03-08T01:34:06Z</time>
      </trkpt>
      <trkpt lat="44.12699" lon="3.12171">
        <ele>834</ele>
        <time>2016-03-08T01:36:06Z</time>
      </trkpt>
      <trkpt lat="44.12703" lon="3.1215">
        <ele>833</ele>
        <time>2016-03-08T01:38:06Z</time>
      </trkpt>
      <trkpt lat="44.12713" lon="3.12132">
        <ele>832</ele>
        <time>2016-03-08T01:40:06Z</time>
      </trkpt>
      <trkpt lat="44.12726" lon="3.12115">
        <ele>831</ele>
        <time>2016-03-08T01:42:06Z</time>
      </trkpt>
      <trkpt lat="44.1275" lon="3.12095">
        <ele>829</ele>
        <time>2016-03-08T01:44:06Z</time>
      </trkpt>
      <trkpt lat="44.12769" lon="3.12077">
        <ele>828</ele>
        <time>2016-03-08T01:46:06Z</time>
      </trkpt>
      <trkpt lat="44.12784" lon="3.12064">
        <ele>826</ele>
        <time>2016-03-08T01:48:06Z</time>
      </trkpt>
      <trkpt lat="44.12806" lon="3.12048">
        <ele>825</ele>
        <time>2016-03-08T01:50:06Z</time>
      </trkpt>
      <trkpt lat="44.12827" lon="3.12037">
        <ele>824</ele>
        <time>2016-03-08T01:52:06Z</time>
      </trkpt>
      <trkpt lat="44.1283" lon="3.1201">
        <ele>823</ele>
        <time>2016-03-08T01:54:06Z</time>
      </trkpt>
      <trkpt lat="44.12835" lon="3.11997">
        <ele>823</ele>
        <time>2016-03-08T01:56:06Z</time>
      </trkpt>
      <trkpt lat="44.12837" lon="3.1198">
        <ele>822</ele>
        <time>2016-03-08T01:58:06Z</time>
      </trkpt>
      <trkpt lat="44.12839" lon="3.11963">
        <ele>821</ele>
        <time>2016-03-08T02:00:06Z</time>
      </trkpt>
      <trkpt lat="44.1284" lon="3.1194">
        <ele>820</ele>
        <time>2016-03-08T02:02:06Z</time>
      </trkpt>
      <trkpt lat="44.12842" lon="3.11925">
        <ele>819</ele>
        <time>2016-03-08T02:04:06Z</time>
      </trkpt>
      <trkpt lat="44.12848" lon="3.11906">
        <ele>818</ele>
        <time>2016-03-08T02:06:06Z</time>
      </trkpt>
      <trkpt lat="44.12849" lon="3.11872">
        <ele>814</ele>
        <time>2016-03-08T02:08:06Z</time>
      </trkpt>
      <trkpt lat="44.12839" lon="3.11873">
        <ele>813</ele>
        <time>2016-03-08T02:10:06Z</time>
      </trkpt>
      <trkpt lat="44.12828" lon="3.11865">
        <ele>810</ele>
        <time>2016-03-08T02:12:06Z</time>
      </trkpt>
      <trkpt lat="44.12823" lon="3.11858">
        <ele>809</ele>
        <time>2016-03-08T02:14:06Z</time>
      </trkpt>
      <trkpt lat="44.1281" lon="3.11853">
        <ele>808</ele>
        <time>2016-03-08T02:16:06Z</time>
      </trkpt>
      <trkpt lat="44.12796" lon="3.11851">
        <ele>807</ele>
        <time>2016-03-08T02:18:06Z</time>
      </trkpt>
      <trkpt lat="44.12785" lon="3.11845">
        <ele>806</ele>
        <time>2016-03-08T02:20:06Z</time>
      </trkpt>
      <trkpt lat="44.12772" lon="3.11838">
        <ele>805</ele>
        <time>2016-03-08T02:22:06Z</time>
      </trkpt>
      <trkpt lat="44.12765" lon="3.1183">
        <ele>804</ele>
        <time>2016-03-08T02:24:06Z</time>
      </trkpt>
      <trkpt lat="44.12757" lon="3.11821">
        <ele>802</ele>
        <time>2016-03-08T02:26:06Z</time>
      </trkpt>
      <trkpt lat="44.12748" lon="3.11812">
        <ele>800</ele>
        <time>2016-03-08T02:28:06Z</time>
      </trkpt>
      <trkpt lat="44.12741" lon="3.11811">
        <ele>800</ele>
        <time>2016-03-08T02:30:06Z</time>
      </trkpt>
      <trkpt lat="44.12732" lon="3.11815">
        <ele>801</ele>
        <time>2016-03-08T02:32:06Z</time>
      </trkpt>
      <trkpt lat="44.12726" lon="3.11819">
        <ele>802</ele>
        <time>2016-03-08T02:34:06Z</time>
      </trkpt>
      <trkpt lat="44.12721" lon="3.11822">
        <ele>803</ele>
        <time>2016-03-08T02:36:06Z</time>
      </trkpt>
      <trkpt lat="44.12716" lon="3.11826">
        <ele>803</ele>
        <time>2016-03-08T02:38:06Z</time>
      </trkpt>
      <trkpt lat="44.12708" lon="3.11834">
        <ele>805</ele>
        <time>2016-03-08T02:40:06Z</time>
      </trkpt>
      <trkpt lat="44.12701" lon="3.11844">
        <ele>806</ele>
        <time>2016-03-08T02:42:06Z</time>
      </trkpt>
      <trkpt lat="44.12695" lon="3.11851">
        <ele>807</ele>
        <time>2016-03-08T02:44:06Z</time>
      </trkpt>
      <trkpt lat="44.12691" lon="3.11861">
        <ele>808</ele>
        <time>2016-03-08T02:46:06Z</time>
      </trkpt>
      <trkpt lat="44.12683" lon="3.11861">
        <ele>808</ele>
        <time>2016-03-08T02:48:06Z</time>
      </trkpt>
      <trkpt lat="44.12675" lon="3.11856">
        <ele>807</ele>
        <time>2016-03-08T02:50:06Z</time>
      </trkpt>
      <trkpt lat="44.12656" lon="3.11845">
        <ele>807</ele>
        <time>2016-03-08T02:52:06Z</time>
      </trkpt>
      <trkpt lat="44.12644" lon="3.11836">
        <ele>808</ele>
        <time>2016-03-08T02:54:06Z</time>
      </trkpt>
      <trkpt lat="44.12634" lon="3.1183">
        <ele>808</ele>
        <time>2016-03-08T02:56:06Z</time>
      </trkpt>
      <trkpt lat="44.12624" lon="3.11823">
        <ele>809</ele>
        <time>2016-03-08T02:58:06Z</time>
      </trkpt>
      <trkpt lat="44.12616" lon="3.11817">
        <ele>810</ele>
        <time>2016-03-08T03:00:06Z</time>
      </trkpt>
      <trkpt lat="44.12608" lon="3.11815">
        <ele>811</ele>
        <time>2016-03-08T03:02:06Z</time>
      </trkpt>
      <trkpt lat="44.12601" lon="3.1181">
        <ele>812</ele>
        <time>2016-03-08T03:04:06Z</time>
      </trkpt>
      <trkpt lat="44.12592" lon="3.11812">
        <ele>813</ele>
        <time>2016-03-08T03:06:06Z</time>
      </trkpt>
      <trkpt lat="44.12584" lon="3.11812">
        <ele>814</ele>
        <time>2016-03-08T03:08:06Z</time>
      </trkpt>
      <trkpt lat="44.12578" lon="3.11813">
        <ele>814</ele>
        <time>2016-03-08T03:10:06Z</time>
      </trkpt>
      <trkpt lat="44.12572" lon="3.11814">
        <ele>815</ele>
        <time>2016-03-08T03:12:06Z</time>
      </trkpt>
      <trkpt lat="44.12565" lon="3.11812">
        <ele>816</ele>
        <time>2016-03-08T03:14:06Z</time>
      </trkpt>
      <trkpt lat="44.12555" lon="3.11797">
        <ele>817</ele>
        <time>2016-03-08T03:16:06Z</time>
      </trkpt>
      <trkpt lat="44.12547" lon="3.11783">
        <ele>817</ele>
        <time>2016-03-08T03:18:06Z</time>
      </trkpt>
      <trkpt lat="44.12537" lon="3.11764">
        <ele>817</ele>
        <time>2016-03-08T03:20:06Z</time>
      </trkpt>
      <trkpt lat="44.12542" lon="3.11754">
        <ele>817</ele>
        <time>2016-03-08T03:22:06Z</time>
      </trkpt>
      <trkpt lat="44.12544" lon="3.11737">
        <ele>816</ele>
        <time>2016-03-08T03:24:06Z</time>
      </trkpt>
      <trkpt lat="44.12539" lon="3.11715">
        <ele>817</ele>
        <time>2016-03-08T03:26:06Z</time>
      </trkpt>
      <trkpt lat="44.1254" lon="3.11699">
        <ele>817</ele>
        <time>2016-03-08T03:28:06Z</time>
      </trkpt>
      <trkpt lat="44.12542" lon="3.11682">
        <ele>817</ele>
        <time>2016-03-08T03:30:06Z</time>
      </trkpt>
      <trkpt lat="44.1254" lon="3.11658">
        <ele>817</ele>
        <time>2016-03-08T03:32:06Z</time>
      </trkpt>
      <trkpt lat="44.12537" lon="3.11643">
        <ele>817</ele>
        <time>2016-03-08T03:34:06Z</time>
      </trkpt>
      <trkpt lat="44.12534" lon="3.11631">
        <ele>816</ele>
        <time>2016-03-08T03:36:06Z</time>
      </trkpt>
      <trkpt lat="44.12528" lon="3.11618">
        <ele>816</ele>
        <time>2016-03-08T03:38:06Z</time>
      </trkpt>
      <trkpt lat="44.12519" lon="3.11602">
        <ele>816</ele>
        <time>2016-03-08T03:40:06Z</time>
      </trkpt>
      <trkpt lat="44.12515" lon="3.11587">
        <ele>815</ele>
        <time>2016-03-08T03:42:06Z</time>
      </trkpt>
      <trkpt lat="44.12512" lon="3.11579">
        <ele>814</ele>
        <time>2016-03-08T03:44:06Z</time>
      </trkpt>
      <trkpt lat="44.12508" lon="3.11521">
        <ele>811</ele>
        <time>2016-03-08T03:46:06Z</time>
      </trkpt>
      <trkpt lat="44.12497" lon="3.11521">
        <ele>811</ele>
        <time>2016-03-08T03:48:06Z</time>
      </trkpt>
      <trkpt lat="44.12487" lon="3.11512">
        <ele>810</ele>
        <time>2016-03-08T03:50:06Z</time>
      </trkpt>
      <trkpt lat="44.12478" lon="3.11517">
        <ele>811</ele>
        <time>2016-03-08T03:52:06Z</time>
      </trkpt>
      <trkpt lat="44.12467" lon="3.11522">
        <ele>811</ele>
        <time>2016-03-08T03:54:06Z</time>
      </trkpt>
      <trkpt lat="44.12459" lon="3.11518">
        <ele>810</ele>
        <time>2016-03-08T03:56:06Z</time>
      </trkpt>
      <trkpt lat="44.12449" lon="3.11514">
        <ele>810</ele>
        <time>2016-03-08T03:58:06Z</time>
      </trkpt>
      <trkpt lat="44.12456" lon="3.11474">
        <ele>806</ele>
        <time>2016-03-08T04:00:06Z</time>
      </trkpt>
      <trkpt lat="44.1246" lon="3.11448">
        <ele>805</ele>
        <time>2016-03-08T04:02:06Z</time>
      </trkpt>
      <trkpt lat="44.12465" lon="3.11418">
        <ele>802</ele>
        <time>2016-03-08T04:04:06Z</time>
      </trkpt>
      <trkpt lat="44.1247" lon="3.1139">
        <ele>801</ele>
        <time>2016-03-08T04:06:06Z</time>
      </trkpt>
      <trkpt lat="44.12468" lon="3.11379">
        <ele>800</ele>
        <time>2016-03-08T04:08:06Z</time>
      </trkpt>
      <trkpt lat="44.12467" lon="3.11369">
        <ele>799</ele>
        <time>2016-03-08T04:10:06Z</time>
      </trkpt>
      <trkpt lat="44.12467" lon="3.11363">
        <ele>799</ele>
        <time>2016-03-08T04:12:06Z</time>
      </trkpt>
      <trkpt lat="44.12468" lon="3.11349">
        <ele>798</ele>
        <time>2016-03-08T04:14:06Z</time>
      </trkpt>
      <trkpt lat="44.12466" lon="3.11336">
        <ele>797</ele>
        <time>2016-03-08T04:16:06Z</time>
      </trkpt>
      <trkpt lat="44.12466" lon="3.11323">
        <ele>795</ele>
        <time>2016-03-08T04:18:06Z</time>
      </trkpt>
      <trkpt lat="44.12466" lon="3.11316">
        <ele>794</ele>
        <time>2016-03-08T04:20:06Z</time>
      </trkpt>
      <trkpt lat="44.12469" lon="3.11311">
        <ele>794</ele>
        <time>2016-03-08T04:22:06Z</time>
      </trkpt>
      <trkpt lat="44.12469" lon="3.113">
        <ele>793</ele>
        <time>2016-03-08T04:24:06Z</time>
      </trkpt>
      <trkpt lat="44.12471" lon="3.11295">
        <ele>792</ele>
        <time>2016-03-08T04:26:06Z</time>
      </trkpt>
      <trkpt lat="44.12469" lon="3.11288">
        <ele>791</ele>
        <time>2016-03-08T04:28:06Z</time>
      </trkpt>
      <trkpt lat="44.12467" lon="3.1127">
        <ele>789</ele>
        <time>2016-03-08T04:30:06Z</time>
      </trkpt>
      <trkpt lat="44.12467" lon="3.11258">
        <ele>788</ele>
        <time>2016-03-08T04:32:06Z</time>
      </trkpt>
      <trkpt lat="44.1247" lon="3.11247">
        <ele>787</ele>
        <time>2016-03-08T04:34:06Z</time>
      </trkpt>
      <trkpt lat="44.12473" lon="3.11233">
        <ele>784</ele>
        <time>2016-03-08T04:36:06Z</time>
      </trkpt>
      <trkpt lat="44.1247" lon="3.11225">
        <ele>782</ele>
        <time>2016-03-08T04:38:06Z</time>
      </trkpt>
      <trkpt lat="44.12469" lon="3.11211">
        <ele>779</ele>
        <time>2016-03-08T04:40:06Z</time>
      </trkpt>
      <trkpt lat="44.12469" lon="3.11199">
        <ele>777</ele>
        <time>2016-03-08T04:42:06Z</time>
      </trkpt>
      <trkpt lat="44.12471" lon="3.11185">
        <ele>775</ele>
        <time>2016-03-08T04:44:06Z</time>
      </trkpt>
      <trkpt lat="44.12471" lon="3.11178">
        <ele>773</ele>
        <time>2016-03-08T04:46:06Z</time>
      </trkpt>
      <trkpt lat="44.12479" lon="3.1117">
        <ele>774</ele>
        <time>2016-03-08T04:48:06Z</time>
      </trkpt>
      <trkpt lat="44.12485" lon="3.11165">
        <ele>774</ele>
        <time>2016-03-08T04:50:06Z</time>
      </trkpt>
      <trkpt lat="44.1249" lon="3.11157">
        <ele>772</ele>
        <time>2016-03-08T04:52:06Z</time>
      </trkpt>
      <trkpt lat="44.12488" lon="3.11154">
        <ele>771</ele>
        <time>2016-03-08T04:54:06Z</time>
      </trkpt>
      <trkpt lat="44.12483" lon="3.11154">
        <ele>769</ele>
        <time>2016-03-08T04:56:06Z</time>
      </trkpt>
      <trkpt lat="44.12477" lon="3.1116">
        <ele>770</ele>
        <time>2016-03-08T04:58:06Z</time>
      </trkpt>
      <trkpt lat="44.12472" lon="3.11164">
        <ele>770</ele>
        <time>2016-03-08T05:00:06Z</time>
      </trkpt>
      <trkpt lat="44.12468" lon="3.11172">
        <ele>771</ele>
        <time>2016-03-08T05:02:06Z</time>
      </trkpt>
      <trkpt lat="44.12462" lon="3.11179">
        <ele>771</ele>
        <time>2016-03-08T05:04:06Z</time>
      </trkpt>
      <trkpt lat="44.12459" lon="3.11183">
        <ele>771</ele>
        <time>2016-03-08T05:06:06Z</time>
      </trkpt>
      <trkpt lat="44.12454" lon="3.11184">
        <ele>770</ele>
        <time>2016-03-08T05:08:06Z</time>
      </trkpt>
      <trkpt lat="44.12448" lon="3.1119">
        <ele>770</ele>
        <time>2016-03-08T05:10:06Z</time>
      </trkpt>
      <trkpt lat="44.12441" lon="3.11197">
        <ele>770</ele>
        <time>2016-03-08T05:12:06Z</time>
      </trkpt>
      <trkpt lat="44.12437" lon="3.11201">
        <ele>771</ele>
        <time>2016-03-08T05:14:06Z</time>
      </trkpt>
      <trkpt lat="44.12431" lon="3.11208">
        <ele>771</ele>
        <time>2016-03-08T05:16:06Z</time>
      </trkpt>
      <trkpt lat="44.12424" lon="3.1121">
        <ele>770</ele>
        <time>2016-03-08T05:18:06Z</time>
      </trkpt>
      <trkpt lat="44.12416" lon="3.11213">
        <ele>770</ele>
        <time>2016-03-08T05:20:06Z</time>
      </trkpt>
      <trkpt lat="44.12411" lon="3.11215">
        <ele>768</ele>
        <time>2016-03-08T05:22:06Z</time>
      </trkpt>
      <trkpt lat="44.12405" lon="3.11222">
        <ele>769</ele>
        <time>2016-03-08T05:24:06Z</time>
      </trkpt>
      <trkpt lat="44.124" lon="3.11233">
        <ele>770</ele>
        <time>2016-03-08T05:26:06Z</time>
      </trkpt>
      <trkpt lat="44.124" lon="3.11241">
        <ele>773</ele>
        <time>2016-03-08T05:28:06Z</time>
      </trkpt>
      <trkpt lat="44.12403" lon="3.11248">
        <ele>776</ele>
        <time>2016-03-08T05:30:06Z</time>
      </trkpt>
      <trkpt lat="44.12402" lon="3.11253">
        <ele>777</ele>
        <time>2016-03-08T05:32:06Z</time>
      </trkpt>
      <trkpt lat="44.12398" lon="3.11257">
        <ele>777</ele>
        <time>2016-03-08T05:34:06Z</time>
      </trkpt>
      <trkpt lat="44.12393" lon="3.11269">
        <ele>778</ele>
        <time>2016-03-08T05:36:06Z</time>
      </trkpt>
      <trkpt lat="44.12387" lon="3.11279">
        <ele>779</ele>
        <time>2016-03-08T05:38:06Z</time>
      </trkpt>
      <trkpt lat="44.12383" lon="3.11283">
        <ele>779</ele>
        <time>2016-03-08T05:40:06Z</time>
      </trkpt>
      <trkpt lat="44.12374" lon="3.11292">
        <ele>779</ele>
        <time>2016-03-08T05:42:06Z</time>
      </trkpt>
      <trkpt lat="44.12368" lon="3.11296">
        <ele>779</ele>
        <time>2016-03-08T05:44:06Z</time>
      </trkpt>
      <trkpt lat="44.1236" lon="3.11301">
        <ele>780</ele>
        <time>2016-03-08T05:46:06Z</time>
      </trkpt>
      <trkpt lat="44.12354" lon="3.11308">
        <ele>781</ele>
        <time>2016-03-08T05:48:06Z</time>
      </trkpt>
      <trkpt lat="44.12348" lon="3.11314">
        <ele>782</ele>
        <time>2016-03-08T05:50:06Z</time>
      </trkpt>
      <trkpt lat="44.12343" lon="3.11321">
        <ele>784</ele>
        <time>2016-03-08T05:52:06Z</time>
      </trkpt>
      <trkpt lat="44.12336" lon="3.11328">
        <ele>786</ele>
        <time>2016-03-08T05:54:06Z</time>
      </trkpt>
      <trkpt lat="44.12301" lon="3.11343">
        <ele>788</ele>
        <time>2016-03-08T05:56:06Z</time>
      </trkpt>
      <trkpt lat="44.12257" lon="3.11336">
        <ele>784</ele>
        <time>2016-03-08T05:58:06Z</time>
      </trkpt>
      <trkpt lat="44.12213" lon="3.11334">
        <ele>788</ele>
        <time>2016-03-08T06:00:06Z</time>
      </trkpt>
      <trkpt lat="44.12194" lon="3.11336">
        <ele>790</ele>
        <time>2016-03-08T06:02:06Z</time>
      </trkpt>
      <trkpt lat="44.12174" lon="3.11315">
        <ele>786</ele>
        <time>2016-03-08T06:04:06Z</time>
      </trkpt>
      <trkpt lat="44.12145" lon="3.11306">
        <ele>788</ele>
        <time>2016-03-08T06:06:06Z</time>
      </trkpt>
      <trkpt lat="44.12137" lon="3.11265">
        <ele>778</ele>
        <time>2016-03-08T06:08:06Z</time>
      </trkpt>
      <trkpt lat="44.12123" lon="3.11242">
        <ele>777</ele>
        <time>2016-03-08T06:10:06Z</time>
      </trkpt>
      <trkpt lat="44.12099" lon="3.11233">
        <ele>783</ele>
        <time>2016-03-08T06:12:06Z</time>
      </trkpt>
      <trkpt lat="44.1208" lon="3.11231">
        <ele>787</ele>
        <time>2016-03-08T06:14:06Z</time>
      </trkpt>
      <trkpt lat="44.12078" lon="3.11217">
        <ele>785</ele>
        <time>2016-03-08T06:16:06Z</time>
      </trkpt>
      <trkpt lat="44.12073" lon="3.11205">
        <ele>784</ele>
        <time>2016-03-08T06:18:06Z</time>
      </trkpt>
      <trkpt lat="44.12067" lon="3.11195">
        <ele>783</ele>
        <time>2016-03-08T06:20:06Z</time>
      </trkpt>
      <trkpt lat="44.12062" lon="3.11188">
        <ele>782</ele>
        <time>2016-03-08T06:22:06Z</time>
      </trkpt>
      <trkpt lat="44.12059" lon="3.1118">
        <ele>782</ele>
        <time>2016-03-08T06:24:06Z</time>
      </trkpt>
      <trkpt lat="44.12055" lon="3.11174">
        <ele>781</ele>
        <time>2016-03-08T06:26:06Z</time>
      </trkpt>
      <trkpt lat="44.1205" lon="3.11167">
        <ele>781</ele>
        <time>2016-03-08T06:28:06Z</time>
      </trkpt>
      <trkpt lat="44.12047" lon="3.11163">
        <ele>781</ele>
        <time>2016-03-08T06:30:06Z</time>
      </trkpt>
      <trkpt lat="44.12042" lon="3.11156">
        <ele>782</ele>
        <time>2016-03-08T06:32:06Z</time>
      </trkpt>
      <trkpt lat="44.1204" lon="3.11148">
        <ele>783</ele>
        <time>2016-03-08T06:34:06Z</time>
      </trkpt>
      <trkpt lat="44.12028" lon="3.11147">
        <ele>785</ele>
        <time>2016-03-08T06:36:06Z</time>
      </trkpt>
      <trkpt lat="44.12016" lon="3.11142">
        <ele>786</ele>
        <time>2016-03-08T06:38:06Z</time>
      </trkpt>
      <trkpt lat="44.12002" lon="3.11139">
        <ele>788</ele>
        <time>2016-03-08T06:40:06Z</time>
      </trkpt>
      <trkpt lat="44.11989" lon="3.11138">
        <ele>790</ele>
        <time>2016-03-08T06:42:06Z</time>
      </trkpt>
      <trkpt lat="44.11971" lon="3.11135">
        <ele>792</ele>
        <time>2016-03-08T06:44:06Z</time>
      </trkpt>
      <trkpt lat="44.11959" lon="3.11133">
        <ele>793</ele>
        <time>2016-03-08T06:46:06Z</time>
      </trkpt>
      <trkpt lat="44.11949" lon="3.11132">
        <ele>794</ele>
        <time>2016-03-08T06:48:06Z</time>
      </trkpt>
      <trkpt lat="44.11937" lon="3.11129">
        <ele>796</ele>
        <time>2016-03-08T06:50:06Z</time>
      </trkpt>
      <trkpt lat="44.11924" lon="3.11128">
        <ele>797</ele>
        <time>2016-03-08T06:52:06Z</time>
      </trkpt>
      <trkpt lat="44.11915" lon="3.11132">
        <ele>798</ele>
        <time>2016-03-08T06:54:06Z</time>
      </trkpt>
      <trkpt lat="44.11904" lon="3.11135">
        <ele>799</ele>
        <time>2016-03-08T06:56:06Z</time>
      </trkpt>
      <trkpt lat="44.11892" lon="3.11138">
        <ele>800</ele>
        <time>2016-03-08T06:58:06Z</time>
      </trkpt>
      <trkpt lat="44.11885" lon="3.11139">
        <ele>800</ele>
        <time>2016-03-08T07:00:06Z</time>
      </trkpt>
      <trkpt lat="44.11877" lon="3.11144">
        <ele>801</ele>
        <time>2016-03-08T07:02:06Z</time>
      </trkpt>
      <trkpt lat="44.11869" lon="3.11144">
        <ele>801</ele>
        <time>2016-03-08T07:04:06Z</time>
      </trkpt>
      <trkpt lat="44.11865" lon="3.11145">
        <ele>801</ele>
        <time>2016-03-08T07:06:06Z</time>
      </trkpt>
      <trkpt lat="44.11854" lon="3.11148">
        <ele>802</ele>
        <time>2016-03-08T07:08:06Z</time>
      </trkpt>
      <trkpt lat="44.11842" lon="3.11148">
        <ele>803</ele>
        <time>2016-03-08T07:10:06Z</time>
      </trkpt>
      <trkpt lat="44.11827" lon="3.11141">
        <ele>803</ele>
        <time>2016-03-08T07:12:06Z</time>
      </trkpt>
      <trkpt lat="44.11812" lon="3.11135">
        <ele>804</ele>
        <time>2016-03-08T07:14:06Z</time>
      </trkpt>
      <trkpt lat="44.11796" lon="3.11124">
        <ele>804</ele>
        <time>2016-03-08T07:16:06Z</time>
      </trkpt>
      <trkpt lat="44.1178" lon="3.11108">
        <ele>805</ele>
        <time>2016-03-08T07:18:06Z</time>
      </trkpt>
      <trkpt lat="44.11761" lon="3.1109">
        <ele>806</ele>
        <time>2016-03-08T07:20:06Z</time>
      </trkpt>
      <trkpt lat="44.11741" lon="3.11073">
        <ele>806</ele>
        <time>2016-03-08T07:22:06Z</time>
      </trkpt>
      <trkpt lat="44.11715" lon="3.11058">
        <ele>804</ele>
        <time>2016-03-08T07:24:06Z</time>
      </trkpt>
      <trkpt lat="44.11703" lon="3.11045">
        <ele>804</ele>
        <time>2016-03-08T07:26:06Z</time>
      </trkpt>
      <trkpt lat="44.11684" lon="3.11035">
        <ele>803</ele>
        <time>2016-03-08T07:28:06Z</time>
      </trkpt>
      <trkpt lat="44.11675" lon="3.1103">
        <ele>802</ele>
        <time>2016-03-08T07:30:06Z</time>
      </trkpt>
      <trkpt lat="44.11661" lon="3.11028">
        <ele>801</ele>
        <time>2016-03-08T07:32:06Z</time>
      </trkpt>
      <trkpt lat="44.11652" lon="3.11029">
        <ele>801</ele>
        <time>2016-03-08T07:34:06Z</time>
      </trkpt>
      <trkpt lat="44.11618" lon="3.11031">
        <ele>800</ele>
        <time>2016-03-08T07:36:06Z</time>
      </trkpt>
      <trkpt lat="44.11592" lon="3.11039">
        <ele>799</ele>
        <time>2016-03-08T07:38:06Z</time>
      </trkpt>
      <trkpt lat="44.11569" lon="3.11049">
        <ele>799</ele>
        <time>2016-03-08T07:40:06Z</time>
      </trkpt>
      <trkpt lat="44.1156" lon="3.11052">
        <ele>799</ele>
        <time>2016-03-08T07:42:06Z</time>
      </trkpt>
      <trkpt lat="44.11544" lon="3.11058">
        <ele>799</ele>
        <time>2016-03-08T07:44:06Z</time>
      </trkpt>
      <trkpt lat="44.11527" lon="3.11065">
        <ele>798</ele>
        <time>2016-03-08T07:46:06Z</time>
      </trkpt>
      <trkpt lat="44.11519" lon="3.11072">
        <ele>798</ele>
        <time>2016-03-08T07:48:06Z</time>
      </trkpt>
      <trkpt lat="44.11511" lon="3.11076">
        <ele>798</ele>
        <time>2016-03-08T07:50:06Z</time>
      </trkpt>
      <trkpt lat="44.11503" lon="3.11083">
        <ele>797</ele>
        <time>2016-03-08T07:52:06Z</time>
      </trkpt>
      <trkpt lat="44.11492" lon="3.11089">
        <ele>797</ele>
        <time>2016-03-08T07:54:06Z</time>
      </trkpt>
      <trkpt lat="44.11482" lon="3.11096">
        <ele>797</ele>
        <time>2016-03-08T07:56:06Z</time>
      </trkpt>
      <trkpt lat="44.11474" lon="3.11101">
        <ele>797</ele>
        <time>2016-03-08T07:58:06Z</time>
      </trkpt>
      <trkpt lat="44.11468" lon="3.11106">
        <ele>797</ele>
        <time>2016-03-08T08:00:06Z</time>
      </trkpt>
      <trkpt lat="44.11459" lon="3.11116">
        <ele>796</ele>
        <time>2016-03-08T08:02:06Z</time>
      </trkpt>
      <trkpt lat="44.1145" lon="3.11123">
        <ele>795</ele>
        <time>2016-03-08T08:04:06Z</time>
      </trkpt>
      <trkpt lat="44.11439" lon="3.1113">
        <ele>794</ele>
        <time>2016-03-08T08:06:06Z</time>
      </trkpt>
      <trkpt lat="44.11425" lon="3.11133">
        <ele>793</ele>
        <time>2016-03-08T08:08:06Z</time>
      </trkpt>
      <trkpt lat="44.1141" lon="3.11133">
        <ele>793</ele>
        <time>2016-03-08T08:10:06Z</time>
      </trkpt>
      <trkpt lat="44.11398" lon="3.11132">
        <ele>792</ele>
        <time>2016-03-08T08:12:06Z</time>
      </trkpt>
      <trkpt lat="44.11385" lon="3.1113">
        <ele>792</ele>
        <time>2016-03-08T08:14:06Z</time>
      </trkpt>
      <trkpt lat="44.11371" lon="3.11129">
        <ele>791</ele>
        <time>2016-03-08T08:16:06Z</time>
      </trkpt>
      <trkpt lat="44.11359" lon="3.11122">
        <ele>792</ele>
        <time>2016-03-08T08:18:06Z</time>
      </trkpt>
      <trkpt lat="44.11349" lon="3.11117">
        <ele>792</ele>
        <time>2016-03-08T08:20:06Z</time>
      </trkpt>
      <trkpt lat="44.11336" lon="3.11112">
        <ele>793</ele>
        <time>2016-03-08T08:22:06Z</time>
      </trkpt>
      <trkpt lat="44.11323" lon="3.11105">
        <ele>792</ele>
        <time>2016-03-08T08:24:06Z</time>
      </trkpt>
      <trkpt lat="44.11312" lon="3.11096">
        <ele>792</ele>
        <time>2016-03-08T08:26:06Z</time>
      </trkpt>
      <trkpt lat="44.11301" lon="3.11087">
        <ele>792</ele>
        <time>2016-03-08T08:28:06Z</time>
      </trkpt>
      <trkpt lat="44.11286" lon="3.11078">
        <ele>791</ele>
        <time>2016-03-08T08:30:06Z</time>
      </trkpt>
      <trkpt lat="44.11271" lon="3.11065">
        <ele>792</ele>
        <time>2016-03-08T08:32:06Z</time>
      </trkpt>
      <trkpt lat="44.1126" lon="3.11053">
        <ele>792</ele>
        <time>2016-03-08T08:34:06Z</time>
      </trkpt>
      <trkpt lat="44.1125" lon="3.11045">
        <ele>793</ele>
        <time>2016-03-08T08:36:06Z</time>
      </trkpt>
      <trkpt lat="44.11241" lon="3.1103">
        <ele>794</ele>
        <time>2016-03-08T08:38:06Z</time>
      </trkpt>
      <trkpt lat="44.11232" lon="3.11022">
        <ele>794</ele>
        <time>2016-03-08T08:40:06Z</time>
      </trkpt>
      <trkpt lat="44.11218" lon="3.1101">
        <ele>794</ele>
        <time>2016-03-08T08:42:06Z</time>
      </trkpt>
      <trkpt lat="44.11211" lon="3.11003">
        <ele>794</ele>
        <time>2016-03-08T08:44:06Z</time>
      </trkpt>
      <trkpt lat="44.11201" lon="3.10996">
        <ele>794</ele>
        <time>2016-03-08T08:46:06Z</time>
      </trkpt>
      <trkpt lat="44.11194" lon="3.10988">
        <ele>794</ele>
        <time>2016-03-08T08:48:06Z</time>
      </trkpt>
      <trkpt lat="44.1119" lon="3.10983">
        <ele>795</ele>
        <time>2016-03-08T08:50:06Z</time>
      </trkpt>
      <trkpt lat="44.11187" lon="3.10973">
        <ele>796</ele>
        <time>2016-03-08T08:52:06Z</time>
      </trkpt>
      <trkpt lat="44.1118" lon="3.10966">
        <ele>797</ele>
        <time>2016-03-08T08:54:06Z</time>
      </trkpt>
      <trkpt lat="44.11175" lon="3.10962">
        <ele>797</ele>
        <time>2016-03-08T08:56:06Z</time>
      </trkpt>
      <trkpt lat="44.11172" lon="3.10951">
        <ele>799</ele>
        <time>2016-03-08T08:58:06Z</time>
      </trkpt>
      <trkpt lat="44.11165" lon="3.10948">
        <ele>799</ele>
        <time>2016-03-08T09:00:06Z</time>
      </trkpt>
      <trkpt lat="44.11153" lon="3.10951">
        <ele>797</ele>
        <time>2016-03-08T09:02:06Z</time>
      </trkpt>
      <trkpt lat="44.11145" lon="3.10948">
        <ele>796</ele>
        <time>2016-03-08T09:04:06Z</time>
      </trkpt>
      <trkpt lat="44.11137" lon="3.1095">
        <ele>795</ele>
        <time>2016-03-08T09:06:06Z</time>
      </trkpt>
      <trkpt lat="44.11132" lon="3.10948">
        <ele>795</ele>
        <time>2016-03-08T09:08:06Z</time>
      </trkpt>
      <trkpt lat="44.11125" lon="3.10946">
        <ele>795</ele>
        <time>2016-03-08T09:10:06Z</time>
      </trkpt>
      <trkpt lat="44.11116" lon="3.10942">
        <ele>795</ele>
        <time>2016-03-08T09:12:06Z</time>
      </trkpt>
      <trkpt lat="44.11108" lon="3.10939">
        <ele>794</ele>
        <time>2016-03-08T09:14:06Z</time>
      </trkpt>
      <trkpt lat="44.11103" lon="3.10935">
        <ele>795</ele>
        <time>2016-03-08T09:16:06Z</time>
      </trkpt>
      <trkpt lat="44.11098" lon="3.10926">
        <ele>796</ele>
        <time>2016-03-08T09:18:06Z</time>
      </trkpt>
      <trkpt lat="44.11092" lon="3.10919">
        <ele>797</ele>
        <time>2016-03-08T09:20:06Z</time>
      </trkpt>
      <trkpt lat="44.11089" lon="3.10911">
        <ele>798</ele>
        <time>2016-03-08T09:22:06Z</time>
      </trkpt>
      <trkpt lat="44.11083" lon="3.109">
        <ele>799</ele>
        <time>2016-03-08T09:24:06Z</time>
      </trkpt>
      <trkpt lat="44.11078" lon="3.10889">
        <ele>799</ele>
        <time>2016-03-08T09:26:06Z</time>
      </trkpt>
      <trkpt lat="44.11074" lon="3.10876">
        <ele>800</ele>
        <time>2016-03-08T09:28:06Z</time>
      </trkpt>
      <trkpt lat="44.11073" lon="3.10863">
        <ele>802</ele>
        <time>2016-03-08T09:30:06Z</time>
      </trkpt>
      <trkpt lat="44.11072" lon="3.10847">
        <ele>804</ele>
        <time>2016-03-08T09:32:06Z</time>
      </trkpt>
      <trkpt lat="44.11072" lon="3.10835">
        <ele>806</ele>
        <time>2016-03-08T09:34:06Z</time>
      </trkpt>
      <trkpt lat="44.11073" lon="3.10824">
        <ele>808</ele>
        <time>2016-03-08T09:36:06Z</time>
      </trkpt>
      <trkpt lat="44.11076" lon="3.10806">
        <ele>810</ele>
        <time>2016-03-08T09:38:06Z</time>
      </trkpt>
      <trkpt lat="44.11078" lon="3.10792">
        <ele>812</ele>
        <time>2016-03-08T09:40:06Z</time>
      </trkpt>
      <trkpt lat="44.11079" lon="3.10777">
        <ele>813</ele>
        <time>2016-03-08T09:42:06Z</time>
      </trkpt>
      <trkpt lat="44.11077" lon="3.10768">
        <ele>814</ele>
        <time>2016-03-08T09:44:06Z</time>
      </trkpt>
      <trkpt lat="44.11074" lon="3.1076">
        <ele>814</ele>
        <time>2016-03-08T09:46:06Z</time>
      </trkpt>
      <trkpt lat="44.1107" lon="3.10755">
        <ele>814</ele>
        <time>2016-03-08T09:48:06Z</time>
      </trkpt>
      <trkpt lat="44.11069" lon="3.10746">
        <ele>815</ele>
        <time>2016-03-08T09:50:06Z</time>
      </trkpt>
      <trkpt lat="44.11068" lon="3.1074">
        <ele>816</ele>
        <time>2016-03-08T09:52:06Z</time>
      </trkpt>
      <trkpt lat="44.11066" lon="3.10732">
        <ele>816</ele>
        <time>2016-03-08T09:54:06Z</time>
      </trkpt>
      <trkpt lat="44.11063" lon="3.10722">
        <ele>817</ele>
        <time>2016-03-08T09:56:06Z</time>
      </trkpt>
      <trkpt lat="44.11063" lon="3.10712">
        <ele>818</ele>
        <time>2016-03-08T09:58:06Z</time>
      </trkpt>
      <trkpt lat="44.11061" lon="3.10704">
        <ele>819</ele>
        <time>2016-03-08T10:00:06Z</time>
      </trkpt>
      <trkpt lat="44.11059" lon="3.10689">
        <ele>820</ele>
        <time>2016-03-08T10:02:06Z</time>
      </trkpt>
      <trkpt lat="44.11056" lon="3.10683">
        <ele>820</ele>
        <time>2016-03-08T10:04:06Z</time>
      </trkpt>
      <trkpt lat="44.11054" lon="3.10677">
        <ele>821</ele>
        <time>2016-03-08T10:06:06Z</time>
      </trkpt>
      <trkpt lat="44.11048" lon="3.10679">
        <ele>820</ele>
        <time>2016-03-08T10:08:06Z</time>
      </trkpt>
      <trkpt lat="44.11044" lon="3.10681">
        <ele>820</ele>
        <time>2016-03-08T10:10:06Z</time>
      </trkpt>
      <trkpt lat="44.11039" lon="3.10683">
        <ele>819</ele>
        <time>2016-03-08T10:12:06Z</time>
      </trkpt>
      <trkpt lat="44.11032" lon="3.10682">
        <ele>819</ele>
        <time>2016-03-08T10:14:06Z</time>
      </trkpt>
      <trkpt lat="44.11025" lon="3.10679">
        <ele>818</ele>
        <time>2016-03-08T10:16:06Z</time>
      </trkpt>
      <trkpt lat="44.11022" lon="3.10676">
        <ele>819</ele>
        <time>2016-03-08T10:18:06Z</time>
      </trkpt>
      <trkpt lat="44.11018" lon="3.10677">
        <ele>818</ele>
        <time>2016-03-08T10:20:06Z</time>
      </trkpt>
      <trkpt lat="44.11015" lon="3.10672">
        <ele>818</ele>
        <time>2016-03-08T10:22:06Z</time>
      </trkpt>
      <trkpt lat="44.11013" lon="3.1067">
        <ele>819</ele>
        <time>2016-03-08T10:24:06Z</time>
      </trkpt>
      <trkpt lat="44.11009" lon="3.10665">
        <ele>819</ele>
        <time>2016-03-08T10:26:06Z</time>
      </trkpt>
      <trkpt lat="44.11004" lon="3.10663">
        <ele>819</ele>
        <time>2016-03-08T10:28:06Z</time>
      </trkpt>
      <trkpt lat="44.10999" lon="3.10662">
        <ele>818</ele>
        <time>2016-03-08T10:30:06Z</time>
      </trkpt>
      <trkpt lat="44.10993" lon="3.1066">
        <ele>815</ele>
        <time>2016-03-08T10:32:06Z</time>
      </trkpt>
      <trkpt lat="44.10988" lon="3.10656">
        <ele>814</ele>
        <time>2016-03-08T10:34:06Z</time>
      </trkpt>
      <trkpt lat="44.10987" lon="3.1065">
        <ele>814</ele>
        <time>2016-03-08T10:36:06Z</time>
      </trkpt>
      <trkpt lat="44.10988" lon="3.10644">
        <ele>814</ele>
        <time>2016-03-08T10:38:06Z</time>
      </trkpt>
      <trkpt lat="44.10985" lon="3.1064">
        <ele>813</ele>
        <time>2016-03-08T10:40:06Z</time>
      </trkpt>
      <trkpt lat="44.10984" lon="3.10634">
        <ele>813</ele>
        <time>2016-03-08T10:42:06Z</time>
      </trkpt>
      <trkpt lat="44.10983" lon="3.10629">
        <ele>813</ele>
        <time>2016-03-08T10:44:06Z</time>
      </trkpt>
      <trkpt lat="44.10984" lon="3.10622">
        <ele>814</ele>
        <time>2016-03-08T10:46:06Z</time>
      </trkpt>
      <trkpt lat="44.10983" lon="3.10618">
        <ele>814</ele>
        <time>2016-03-08T10:48:06Z</time>
      </trkpt>
      <trkpt lat="44.10983" lon="3.10612">
        <ele>814</ele>
        <time>2016-03-08T10:50:06Z</time>
      </trkpt>
      <trkpt lat="44.10986" lon="3.10608">
        <ele>816</ele>
        <time>2016-03-08T10:52:06Z</time>
      </trkpt>
      <trkpt lat="44.1099" lon="3.10612">
        <ele>818</ele>
        <time>2016-03-08T10:54:06Z</time>
      </trkpt>
      <trkpt lat="44.10991" lon="3.10607">
        <ele>819</ele>
        <time>2016-03-08T10:56:06Z</time>
      </trkpt>
      <trkpt lat="44.1099" lon="3.10602">
        <ele>818</ele>
        <time>2016-03-08T10:58:06Z</time>
      </trkpt>
      <trkpt lat="44.1099" lon="3.10594">
        <ele>819</ele>
        <time>2016-03-08T11:00:06Z</time>
      </trkpt>
      <trkpt lat="44.1099" lon="3.10585">
        <ele>820</ele>
        <time>2016-03-08T11:02:06Z</time>
      </trkpt>
      <trkpt lat="44.10988" lon="3.10576">
        <ele>819</ele>
        <time>2016-03-08T11:04:06Z</time>
      </trkpt>
      <trkpt lat="44.10991" lon="3.10563">
        <ele>820</ele>
        <time>2016-03-08T11:06:06Z</time>
      </trkpt>
      <trkpt lat="44.10996" lon="3.10559">
        <ele>823</ele>
        <time>2016-03-08T11:08:06Z</time>
      </trkpt>
      <trkpt lat="44.10999" lon="3.10552">
        <ele>824</ele>
        <time>2016-03-08T11:10:06Z</time>
      </trkpt>
      <trkpt lat="44.11001" lon="3.10546">
        <ele>825</ele>
        <time>2016-03-08T11:12:06Z</time>
      </trkpt>
      <trkpt lat="44.10999" lon="3.10537">
        <ele>824</ele>
        <time>2016-03-08T11:14:06Z</time>
      </trkpt>
      <trkpt lat="44.10998" lon="3.10525">
        <ele>823</ele>
        <time>2016-03-08T11:16:06Z</time>
      </trkpt>
      <trkpt lat="44.10998" lon="3.10513">
        <ele>823</ele>
        <time>2016-03-08T11:18:06Z</time>
      </trkpt>
      <trkpt lat="44.10999" lon="3.105">
        <ele>824</ele>
        <time>2016-03-08T11:20:06Z</time>
      </trkpt>
      <trkpt lat="44.11" lon="3.10485">
        <ele>823</ele>
        <time>2016-03-08T11:22:06Z</time>
      </trkpt>
      <trkpt lat="44.11001" lon="3.10475">
        <ele>823</ele>
        <time>2016-03-08T11:24:06Z</time>
      </trkpt>
      <trkpt lat="44.11003" lon="3.10464">
        <ele>822</ele>
        <time>2016-03-08T11:26:06Z</time>
      </trkpt>
      <trkpt lat="44.11009" lon="3.10445">
        <ele>822</ele>
        <time>2016-03-08T11:28:06Z</time>
      </trkpt>
      <trkpt lat="44.11011" lon="3.10425">
        <ele>822</ele>
        <time>2016-03-08T11:30:06Z</time>
      </trkpt>
      <trkpt lat="44.11013" lon="3.10402">
        <ele>823</ele>
        <time>2016-03-08T11:32:06Z</time>
      </trkpt>
      <trkpt lat="44.11014" lon="3.1038">
        <ele>824</ele>
        <time>2016-03-08T11:34:06Z</time>
      </trkpt>
      <trkpt lat="44.11018" lon="3.10363">
        <ele>826</ele>
        <time>2016-03-08T11:36:06Z</time>
      </trkpt>
      <trkpt lat="44.11019" lon="3.10353">
        <ele>826</ele>
        <time>2016-03-08T11:38:06Z</time>
      </trkpt>
      <trkpt lat="44.11023" lon="3.10337">
        <ele>828</ele>
        <time>2016-03-08T11:40:06Z</time>
      </trkpt>
      <trkpt lat="44.11026" lon="3.10324">
        <ele>828</ele>
        <time>2016-03-08T11:42:06Z</time>
      </trkpt>
      <trkpt lat="44.11026" lon="3.103">
        <ele>827</ele>
        <time>2016-03-08T11:44:06Z</time>
      </trkpt>
      <trkpt lat="44.11022" lon="3.10297">
        <ele>826</ele>
        <time>2016-03-08T11:46:06Z</time>
      </trkpt>
      <trkpt lat="44.11021" lon="3.10291">
        <ele>826</ele>
        <time>2016-03-08T11:48:06Z</time>
      </trkpt>
      <trkpt lat="44.11019" lon="3.10284">
        <ele>825</ele>
        <time>2016-03-08T11:50:06Z</time>
      </trkpt>
      <trkpt lat="44.11019" lon="3.10275">
        <ele>825</ele>
        <time>2016-03-08T11:52:06Z</time>
      </trkpt>
      <trkpt lat="44.11019" lon="3.10267">
        <ele>824</ele>
        <time>2016-03-08T11:54:06Z</time>
      </trkpt>
      <trkpt lat="44.11018" lon="3.10254">
        <ele>824</ele>
        <time>2016-03-08T11:56:06Z</time>
      </trkpt>
      <trkpt lat="44.11019" lon="3.10244">
        <ele>823</ele>
        <time>2016-03-08T11:58:06Z</time>
      </trkpt>
      <trkpt lat="44.11024" lon="3.1024">
        <ele>823</ele>
        <time>2016-03-08T12:00:06Z</time>
      </trkpt>
      <trkpt lat="44.11029" lon="3.10247">
        <ele>824</ele>
        <time>2016-03-08T12:02:06Z</time>
      </trkpt>
      <trkpt lat="44.11034" lon="3.10254">
        <ele>825</ele>
        <time>2016-03-08T12:04:06Z</time>
      </trkpt>
      <trkpt lat="44.1104" lon="3.10259">
        <ele>826</ele>
        <time>2016-03-08T12:06:06Z</time>
      </trkpt>
      <trkpt lat="44.11045" lon="3.10266">
        <ele>827</ele>
        <time>2016-03-08T12:08:06Z</time>
      </trkpt>
      <trkpt lat="44.11051" lon="3.1027">
        <ele>828</ele>
        <time>2016-03-08T12:10:06Z</time>
      </trkpt>
      <trkpt lat="44.1106" lon="3.10271">
        <ele>829</ele>
        <time>2016-03-08T12:12:06Z</time>
      </trkpt>
      <trkpt lat="44.11065" lon="3.10271">
        <ele>829</ele>
        <time>2016-03-08T12:14:06Z</time>
      </trkpt>
      <trkpt lat="44.11073" lon="3.1027">
        <ele>830</ele>
        <time>2016-03-08T12:16:06Z</time>
      </trkpt>
      <trkpt lat="44.11081" lon="3.10278">
        <ele>831</ele>
        <time>2016-03-08T12:18:06Z</time>
      </trkpt>
      <trkpt lat="44.11084" lon="3.10285">
        <ele>832</ele>
        <time>2016-03-08T12:20:06Z</time>
      </trkpt>
      <trkpt lat="44.11083" lon="3.10296">
        <ele>833</ele>
        <time>2016-03-08T12:22:06Z</time>
      </trkpt>
      <trkpt lat="44.11085" lon="3.10313">
        <ele>834</ele>
        <time>2016-03-08T12:24:06Z</time>
      </trkpt>
      <trkpt lat="44.11091" lon="3.10328">
        <ele>834</ele>
        <time>2016-03-08T12:26:06Z</time>
      </trkpt>
      <trkpt lat="44.11096" lon="3.10337">
        <ele>833</ele>
        <time>2016-03-08T12:28:06Z</time>
      </trkpt>
      <trkpt lat="44.11109" lon="3.1035">
        <ele>831</ele>
        <time>2016-03-08T12:30:06Z</time>
      </trkpt>
      <trkpt lat="44.11116" lon="3.10355">
        <ele>830</ele>
        <time>2016-03-08T12:32:06Z</time>
      </trkpt>
      <trkpt lat="44.11125" lon="3.10365">
        <ele>829</ele>
        <time>2016-03-08T12:34:06Z</time>
      </trkpt>
      <trkpt lat="44.11135" lon="3.10381">
        <ele>829</ele>
        <time>2016-03-08T12:36:06Z</time>
      </trkpt>
      <trkpt lat="44.11141" lon="3.10392">
        <ele>829</ele>
        <time>2016-03-08T12:38:06Z</time>
      </trkpt>
      <trkpt lat="44.11144" lon="3.10411">
        <ele>831</ele>
        <time>2016-03-08T12:40:06Z</time>
      </trkpt>
      <trkpt lat="44.1115" lon="3.10422">
        <ele>831</ele>
        <time>2016-03-08T12:42:06Z</time>
      </trkpt>
      <trkpt lat="44.11157" lon="3.10432">
        <ele>830</ele>
        <time>2016-03-08T12:44:06Z</time>
      </trkpt>
      <trkpt lat="44.11164" lon="3.10446">
        <ele>830</ele>
        <time>2016-03-08T12:46:06Z</time>
      </trkpt>
      <trkpt lat="44.11169" lon="3.10456">
        <ele>829</ele>
        <time>2016-03-08T12:48:06Z</time>
      </trkpt>
      <trkpt lat="44.11178" lon="3.10462">
        <ele>828</ele>
        <time>2016-03-08T12:50:06Z</time>
      </trkpt>
      <trkpt lat="44.11178" lon="3.10457">
        <ele>828</ele>
        <time>2016-03-08T12:52:06Z</time>
      </trkpt>
      <trkpt lat="44.11182" lon="3.10452">
        <ele>827</ele>
        <time>2016-03-08T12:54:06Z</time>
      </trkpt>
      <trkpt lat="44.11185" lon="3.10444">
        <ele>827</ele>
        <time>2016-03-08T12:56:06Z</time>
      </trkpt>
      <trkpt lat="44.11195" lon="3.10428">
        <ele>825</ele>
        <time>2016-03-08T12:58:06Z</time>
      </trkpt>
      <trkpt lat="44.11205" lon="3.10419">
        <ele>823</ele>
        <time>2016-03-08T13:00:06Z</time>
      </trkpt>
      <trkpt lat="44.1122" lon="3.10416">
        <ele>820</ele>
        <time>2016-03-08T13:02:06Z</time>
      </trkpt>
      <trkpt lat="44.11231" lon="3.10409">
        <ele>816</ele>
        <time>2016-03-08T13:04:06Z</time>
      </trkpt>
      <trkpt lat="44.11241" lon="3.10397">
        <ele>811</ele>
        <time>2016-03-08T13:06:06Z</time>
      </trkpt>
      <trkpt lat="44.11253" lon="3.10388">
        <ele>807</ele>
        <time>2016-03-08T13:08:06Z</time>
      </trkpt>
      <trkpt lat="44.11256" lon="3.10373">
        <ele>802</ele>
        <time>2016-03-08T13:10:06Z</time>
      </trkpt>
      <trkpt lat="44.1126" lon="3.10366">
        <ele>800</ele>
        <time>2016-03-08T13:12:06Z</time>
      </trkpt>
      <trkpt lat="44.11267" lon="3.10364">
        <ele>798</ele>
        <time>2016-03-08T13:14:06Z</time>
      </trkpt>
      <trkpt lat="44.11263" lon="3.10357">
        <ele>797</ele>
        <time>2016-03-08T13:16:06Z</time>
      </trkpt>
      <trkpt lat="44.11259" lon="3.10353">
        <ele>796</ele>
        <time>2016-03-08T13:18:06Z</time>
      </trkpt>
      <trkpt lat="44.11268" lon="3.10353">
        <ele>795</ele>
        <time>2016-03-08T13:20:06Z</time>
      </trkpt>
      <trkpt lat="44.11272" lon="3.10352">
        <ele>794</ele>
        <time>2016-03-08T13:22:06Z</time>
      </trkpt>
      <trkpt lat="44.11278" lon="3.10348">
        <ele>792</ele>
        <time>2016-03-08T13:24:06Z</time>
      </trkpt>
      <trkpt lat="44.11283" lon="3.10341">
        <ele>789</ele>
        <time>2016-03-08T13:26:06Z</time>
      </trkpt>
      <trkpt lat="44.11292" lon="3.10339">
        <ele>787</ele>
        <time>2016-03-08T13:28:06Z</time>
      </trkpt>
      <trkpt lat="44.11295" lon="3.10335">
        <ele>785</ele>
        <time>2016-03-08T13:30:06Z</time>
      </trkpt>
      <trkpt lat="44.11292" lon="3.1033">
        <ele>784</ele>
        <time>2016-03-08T13:32:06Z</time>
      </trkpt>
      <trkpt lat="44.11289" lon="3.10328">
        <ele>784</ele>
        <time>2016-03-08T13:34:06Z</time>
      </trkpt>
      <trkpt lat="44.11279" lon="3.10323">
        <ele>784</ele>
        <time>2016-03-08T13:36:06Z</time>
      </trkpt>
      <trkpt lat="44.11271" lon="3.10318">
        <ele>783</ele>
        <time>2016-03-08T13:38:06Z</time>
      </trkpt>
      <trkpt lat="44.11275" lon="3.10312">
        <ele>780</ele>
        <time>2016-03-08T13:40:06Z</time>
      </trkpt>
      <trkpt lat="44.11286" lon="3.1031">
        <ele>777</ele>
        <time>2016-03-08T13:42:06Z</time>
      </trkpt>
      <trkpt lat="44.11279" lon="3.10298">
        <ele>774</ele>
        <time>2016-03-08T13:44:06Z</time>
      </trkpt>
      <trkpt lat="44.11282" lon="3.10296">
        <ele>773</ele>
        <time>2016-03-08T13:46:06Z</time>
      </trkpt>
      <trkpt lat="44.11288" lon="3.10298">
        <ele>773</ele>
        <time>2016-03-08T13:48:06Z</time>
      </trkpt>
      <trkpt lat="44.11293" lon="3.10292">
        <ele>769</ele>
        <time>2016-03-08T13:50:06Z</time>
      </trkpt>
      <trkpt lat="44.11301" lon="3.10292">
        <ele>768</ele>
        <time>2016-03-08T13:52:06Z</time>
      </trkpt>
      <trkpt lat="44.11303" lon="3.10289">
        <ele>767</ele>
        <time>2016-03-08T13:54:06Z</time>
      </trkpt>
      <trkpt lat="44.11293" lon="3.1028">
        <ele>765</ele>
        <time>2016-03-08T13:56:06Z</time>
      </trkpt>
      <trkpt lat="44.11286" lon="3.10277">
        <ele>765</ele>
        <time>2016-03-08T13:58:06Z</time>
      </trkpt>
      <trkpt lat="44.11281" lon="3.10278">
        <ele>766</ele>
        <time>2016-03-08T14:00:06Z</time>
      </trkpt>
      <trkpt lat="44.11274" lon="3.10273">
        <ele>765</ele>
        <time>2016-03-08T14:02:06Z</time>
      </trkpt>
      <trkpt lat="44.11274" lon="3.10266">
        <ele>762</ele>
        <time>2016-03-08T14:04:06Z</time>
      </trkpt>
      <trkpt lat="44.11277" lon="3.10263">
        <ele>761</ele>
        <time>2016-03-08T14:06:06Z</time>
      </trkpt>
      <trkpt lat="44.11288" lon="3.10258">
        <ele>757</ele>
        <time>2016-03-08T14:08:06Z</time>
      </trkpt>
      <trkpt lat="44.1129" lon="3.10249">
        <ele>753</ele>
        <time>2016-03-08T14:10:06Z</time>
      </trkpt>
      <trkpt lat="44.11286" lon="3.10235">
        <ele>750</ele>
        <time>2016-03-08T14:12:06Z</time>
      </trkpt>
      <trkpt lat="44.11291" lon="3.1023">
        <ele>747</ele>
        <time>2016-03-08T14:14:06Z</time>
      </trkpt>
      <trkpt lat="44.11295" lon="3.10229">
        <ele>746</ele>
        <time>2016-03-08T14:16:06Z</time>
      </trkpt>
      <trkpt lat="44.11296" lon="3.10226">
        <ele>745</ele>
        <time>2016-03-08T14:18:06Z</time>
      </trkpt>
      <trkpt lat="44.11291" lon="3.10219">
        <ele>744</ele>
        <time>2016-03-08T14:20:06Z</time>
      </trkpt>
      <trkpt lat="44.11308" lon="3.10217">
        <ele>739</ele>
        <time>2016-03-08T14:22:06Z</time>
      </trkpt>
      <trkpt lat="44.11312" lon="3.10214">
        <ele>737</ele>
        <time>2016-03-08T14:24:06Z</time>
      </trkpt>
      <trkpt lat="44.11303" lon="3.10204">
        <ele>735</ele>
        <time>2016-03-08T14:26:06Z</time>
      </trkpt>
      <trkpt lat="44.11294" lon="3.10183">
        <ele>731</ele>
        <time>2016-03-08T14:28:06Z</time>
      </trkpt>
      <trkpt lat="44.11291" lon="3.10178">
        <ele>730</ele>
        <time>2016-03-08T14:30:06Z</time>
      </trkpt>
      <trkpt lat="44.11291" lon="3.1017">
        <ele>728</ele>
        <time>2016-03-08T14:32:06Z</time>
      </trkpt>
      <trkpt lat="44.11293" lon="3.10166">
        <ele>726</ele>
        <time>2016-03-08T14:34:06Z</time>
      </trkpt>
      <trkpt lat="44.11292" lon="3.1016">
        <ele>724</ele>
        <time>2016-03-08T14:36:06Z</time>
      </trkpt>
      <trkpt lat="44.113" lon="3.10164">
        <ele>722</ele>
        <time>2016-03-08T14:38:06Z</time>
      </trkpt>
      <trkpt lat="44.11308" lon="3.10161">
        <ele>718</ele>
        <time>2016-03-08T14:40:06Z</time>
      </trkpt>
      <trkpt lat="44.11313" lon="3.10152">
        <ele>712</ele>
        <time>2016-03-08T14:42:06Z</time>
      </trkpt>
      <trkpt lat="44.11312" lon="3.10149">
        <ele>711</ele>
        <time>2016-03-08T14:44:06Z</time>
      </trkpt>
      <trkpt lat="44.11303" lon="3.10149">
        <ele>715</ele>
        <time>2016-03-08T14:46:06Z</time>
      </trkpt>
      <trkpt lat="44.11298" lon="3.10139">
        <ele>714</ele>
        <time>2016-03-08T14:48:06Z</time>
      </trkpt>
      <trkpt lat="44.11299" lon="3.10131">
        <ele>710</ele>
        <time>2016-03-08T14:50:06Z</time>
      </trkpt>
      <trkpt lat="44.11301" lon="3.10127">
        <ele>708</ele>
        <time>2016-03-08T14:52:06Z</time>
      </trkpt>
      <trkpt lat="44.11307" lon="3.10115">
        <ele>700</ele>
        <time>2016-03-08T14:54:06Z</time>
      </trkpt>
      <trkpt lat="44.11306" lon="3.10111">
        <ele>699</ele>
        <time>2016-03-08T14:56:06Z</time>
      </trkpt>
      <trkpt lat="44.1131" lon="3.1011">
        <ele>696</ele>
        <time>2016-03-08T14:58:06Z</time>
      </trkpt>
      <trkpt lat="44.11311" lon="3.10113">
        <ele>697</ele>
        <time>2016-03-08T15:00:06Z</time>
      </trkpt>
      <trkpt lat="44.11316" lon="3.10111">
        <ele>693</ele>
        <time>2016-03-08T15:02:06Z</time>
      </trkpt>
      <trkpt lat="44.11315" lon="3.10107">
        <ele>692</ele>
        <time>2016-03-08T15:04:06Z</time>
      </trkpt>
      <trkpt lat="44.11317" lon="3.10103">
        <ele>690</ele>
        <time>2016-03-08T15:06:06Z</time>
      </trkpt>
      <trkpt lat="44.1133" lon="3.101">
        <ele>681</ele>
        <time>2016-03-08T15:08:06Z</time>
      </trkpt>
      <trkpt lat="44.11335" lon="3.10096">
        <ele>676</ele>
        <time>2016-03-08T15:10:06Z</time>
      </trkpt>
      <trkpt lat="44.11338" lon="3.10096">
        <ele>676</ele>
        <time>2016-03-08T15:12:06Z</time>
      </trkpt>
      <trkpt lat="44.11338" lon="3.101">
        <ele>677</ele>
        <time>2016-03-08T15:14:06Z</time>
      </trkpt>
      <trkpt lat="44.11341" lon="3.10106">
        <ele>679</ele>
        <time>2016-03-08T15:16:06Z</time>
      </trkpt>
      <trkpt lat="44.11347" lon="3.10103">
        <ele>676</ele>
        <time>2016-03-08T15:18:06Z</time>
      </trkpt>
      <trkpt lat="44.11353" lon="3.10106">
        <ele>676</ele>
        <time>2016-03-08T15:20:06Z</time>
      </trkpt>
      <trkpt lat="44.11356" lon="3.10112">
        <ele>678</ele>
        <time>2016-03-08T15:22:06Z</time>
      </trkpt>
      <trkpt lat="44.11355" lon="3.10115">
        <ele>680</ele>
        <time>2016-03-08T15:24:06Z</time>
      </trkpt>
      <trkpt lat="44.11362" lon="3.10126">
        <ele>683</ele>
        <time>2016-03-08T15:26:06Z</time>
      </trkpt>
      <trkpt lat="44.11366" lon="3.10139">
        <ele>688</ele>
        <time>2016-03-08T15:28:06Z</time>
      </trkpt>
      <trkpt lat="44.11375" lon="3.1015">
        <ele>690</ele>
        <time>2016-03-08T15:30:06Z</time>
      </trkpt>
      <trkpt lat="44.11396" lon="3.1016">
        <ele>688</ele>
        <time>2016-03-08T15:32:06Z</time>
      </trkpt>
      <trkpt lat="44.11398" lon="3.10165">
        <ele>690</ele>
        <time>2016-03-08T15:34:06Z</time>
      </trkpt>
      <trkpt lat="44.11406" lon="3.10168">
        <ele>689</ele>
        <time>2016-03-08T15:36:06Z</time>
      </trkpt>
      <trkpt lat="44.11411" lon="3.10176">
        <ele>692</ele>
        <time>2016-03-08T15:38:06Z</time>
      </trkpt>
      <trkpt lat="44.11417" lon="3.10179">
        <ele>691</ele>
        <time>2016-03-08T15:40:06Z</time>
      </trkpt>
      <trkpt lat="44.11425" lon="3.10191">
        <ele>694</ele>
        <time>2016-03-08T15:42:06Z</time>
      </trkpt>
      <trkpt lat="44.11424" lon="3.10201">
        <ele>700</ele>
        <time>2016-03-08T15:44:06Z</time>
      </trkpt>
      <trkpt lat="44.11446" lon="3.10215">
        <ele>696</ele>
        <time>2016-03-08T15:46:06Z</time>
      </trkpt>
      <trkpt lat="44.11444" lon="3.10219">
        <ele>699</ele>
        <time>2016-03-08T15:48:06Z</time>
      </trkpt>
      <trkpt lat="44.11452" lon="3.10217">
        <ele>694</ele>
        <time>2016-03-08T15:50:06Z</time>
      </trkpt>
      <trkpt lat="44.11468" lon="3.10218">
        <ele>686</ele>
        <time>2016-03-08T15:52:06Z</time>
      </trkpt>
      <trkpt lat="44.11475" lon="3.10216">
        <ele>682</ele>
        <time>2016-03-08T15:54:06Z</time>
      </trkpt>
      <trkpt lat="44.11489" lon="3.10219">
        <ele>676</ele>
        <time>2016-03-08T15:56:06Z</time>
      </trkpt>
      <trkpt lat="44.1149" lon="3.10222">
        <ele>677</ele>
        <time>2016-03-08T15:58:06Z</time>
      </trkpt>
      <trkpt lat="44.11498" lon="3.10224">
        <ele>674</ele>
        <time>2016-03-08T16:00:06Z</time>
      </trkpt>
      <trkpt lat="44.11502" lon="3.10227">
        <ele>673</ele>
        <time>2016-03-08T16:02:06Z</time>
      </trkpt>
      <trkpt lat="44.11507" lon="3.10227">
        <ele>671</ele>
        <time>2016-03-08T16:04:06Z</time>
      </trkpt>
      <trkpt lat="44.1151" lon="3.10229">
        <ele>670</ele>
        <time>2016-03-08T16:06:06Z</time>
      </trkpt>
      <trkpt lat="44.11514" lon="3.10227">
        <ele>667</ele>
        <time>2016-03-08T16:08:06Z</time>
      </trkpt>
      <trkpt lat="44.11525" lon="3.10226">
        <ele>662</ele>
        <time>2016-03-08T16:10:06Z</time>
      </trkpt>
      <trkpt lat="44.11528" lon="3.10222">
        <ele>659</ele>
        <time>2016-03-08T16:12:06Z</time>
      </trkpt>
      <trkpt lat="44.11532" lon="3.10222">
        <ele>657</ele>
        <time>2016-03-08T16:14:06Z</time>
      </trkpt>
      <trkpt lat="44.11537" lon="3.10224">
        <ele>655</ele>
        <time>2016-03-08T16:16:06Z</time>
      </trkpt>
      <trkpt lat="44.11544" lon="3.10222">
        <ele>651</ele>
        <time>2016-03-08T16:18:06Z</time>
      </trkpt>
      <trkpt lat="44.11546" lon="3.10221">
        <ele>650</ele>
        <time>2016-03-08T16:20:06Z</time>
      </trkpt>
      <trkpt lat="44.11551" lon="3.10226">
        <ele>650</ele>
        <time>2016-03-08T16:22:06Z</time>
      </trkpt>
      <trkpt lat="44.11556" lon="3.10226">
        <ele>647</ele>
        <time>2016-03-08T16:24:06Z</time>
      </trkpt>
      <trkpt lat="44.11561" lon="3.10239">
        <ele>650</ele>
        <time>2016-03-08T16:26:06Z</time>
      </trkpt>
      <trkpt lat="44.11574" lon="3.10259">
        <ele>652</ele>
        <time>2016-03-08T16:28:06Z</time>
      </trkpt>
      <trkpt lat="44.11588" lon="3.10273">
        <ele>651</ele>
        <time>2016-03-08T16:30:06Z</time>
      </trkpt>
      <trkpt lat="44.1165" lon="3.1033">
        <ele>641</ele>
        <time>2016-03-08T16:32:06Z</time>
      </trkpt>
      <trkpt lat="44.11701" lon="3.10375">
        <ele>637</ele>
        <time>2016-03-08T16:34:06Z</time>
      </trkpt>
      <trkpt lat="44.11694" lon="3.10348">
        <ele>628</ele>
        <time>2016-03-08T16:36:06Z</time>
      </trkpt>
      <trkpt lat="44.11683" lon="3.10332">
        <ele>626</ele>
        <time>2016-03-08T16:38:06Z</time>
      </trkpt>
      <trkpt lat="44.11677" lon="3.10314">
        <ele>623</ele>
        <time>2016-03-08T16:40:06Z</time>
      </trkpt>
      <trkpt lat="44.11664" lon="3.10293">
        <ele>621</ele>
        <time>2016-03-08T16:42:06Z</time>
      </trkpt>
      <trkpt lat="44.11644" lon="3.10246">
        <ele>615</ele>
        <time>2016-03-08T16:44:06Z</time>
      </trkpt>
      <trkpt lat="44.11636" lon="3.10216">
        <ele>608</ele>
        <time>2016-03-08T16:46:06Z</time>
      </trkpt>
      <trkpt lat="44.11631" lon="3.10184">
        <ele>600</ele>
        <time>2016-03-08T16:48:06Z</time>
      </trkpt>
      <trkpt lat="44.11622" lon="3.10166">
        <ele>597</ele>
        <time>2016-03-08T16:50:06Z</time>
      </trkpt>
      <trkpt lat="44.11605" lon="3.10141">
        <ele>596</ele>
        <time>2016-03-08T16:52:06Z</time>
      </trkpt>
      <trkpt lat="44.11589" lon="3.10116">
        <ele>594</ele>
        <time>2016-03-08T16:54:06Z</time>
      </trkpt>
      <trkpt lat="44.1159" lon="3.10105">
        <ele>590</ele>
        <time>2016-03-08T16:56:06Z</time>
      </trkpt>
      <trkpt lat="44.11586" lon="3.10088">
        <ele>585</ele>
        <time>2016-03-08T16:58:06Z</time>
      </trkpt>
      <trkpt lat="44.11556" lon="3.10051">
        <ele>585</ele>
        <time>2016-03-08T17:00:06Z</time>
      </trkpt>
      <trkpt lat="44.11537" lon="3.10032">
        <ele>587</ele>
        <time>2016-03-08T17:02:06Z</time>
      </trkpt>
      <trkpt lat="44.11534" lon="3.1003">
        <ele>587</ele>
        <time>2016-03-08T17:04:06Z</time>
      </trkpt>
      <trkpt lat="44.11532" lon="3.1002">
        <ele>585</ele>
        <time>2016-03-08T17:06:06Z</time>
      </trkpt>
      <trkpt lat="44.1152" lon="3.09992">
        <ele>580</ele>
        <time>2016-03-08T17:08:06Z</time>
      </trkpt>
      <trkpt lat="44.11511" lon="3.0997">
        <ele>577</ele>
        <time>2016-03-08T17:10:06Z</time>
      </trkpt>
      <trkpt lat="44.11499" lon="3.09936">
        <ele>571</ele>
        <time>2016-03-08T17:12:06Z</time>
      </trkpt>
      <trkpt lat="44.11496" lon="3.09902">
        <ele>564</ele>
        <time>2016-03-08T17:14:06Z</time>
      </trkpt>
      <trkpt lat="44.11503" lon="3.09871">
        <ele>557</ele>
        <time>2016-03-08T17:16:06Z</time>
      </trkpt>
      <trkpt lat="44.11512" lon="3.09841">
        <ele>550</ele>
        <time>2016-03-08T17:18:06Z</time>
      </trkpt>
      <trkpt lat="44.11518" lon="3.09811">
        <ele>544</ele>
        <time>2016-03-08T17:20:06Z</time>
      </trkpt>
      <trkpt lat="44.11519" lon="3.09779">
        <ele>538</ele>
        <time>2016-03-08T17:22:06Z</time>
      </trkpt>
      <trkpt lat="44.11521" lon="3.09735">
        <ele>531</ele>
        <time>2016-03-08T17:24:06Z</time>
      </trkpt>
      <trkpt lat="44.11517" lon="3.09688">
        <ele>524</ele>
        <time>2016-03-08T17:26:06Z</time>
      </trkpt>
      <trkpt lat="44.11512" lon="3.09655">
        <ele>519</ele>
        <time>2016-03-08T17:28:06Z</time>
      </trkpt>
      <trkpt lat="44.11502" lon="3.09605">
        <ele>513</ele>
        <time>2016-03-08T17:30:06Z</time>
      </trkpt>
      <trkpt lat="44.11492" lon="3.09555">
        <ele>509</ele>
        <time>2016-03-08T17:32:06Z</time>
      </trkpt>
      <trkpt lat="44.11481" lon="3.09514">
        <ele>505</ele>
        <time>2016-03-08T17:34:06Z</time>
      </trkpt>
      <trkpt lat="44.11473" lon="3.09476">
        <ele>500</ele>
        <time>2016-03-08T17:36:06Z</time>
      </trkpt>
      <trkpt lat="44.1147" lon="3.09461">
        <ele>498</ele>
        <time>2016-03-08T17:38:06Z</time>
      </trkpt>
      <trkpt lat="44.11473" lon="3.0945">
        <ele>496</ele>
        <time>2016-03-08T17:40:06Z</time>
      </trkpt>
      <trkpt lat="44.11479" lon="3.09435">
        <ele>494</ele>
        <time>2016-03-08T17:42:06Z</time>
      </trkpt>
      <trkpt lat="44.11483" lon="3.09424">
        <ele>492</ele>
        <time>2016-03-08T17:44:06Z</time>
      </trkpt>
      <trkpt lat="44.11482" lon="3.09415">
        <ele>491</ele>
        <time>2016-03-08T17:46:06Z</time>
      </trkpt>
      <trkpt lat="44.11476" lon="3.09409">
        <ele>490</ele>
        <time>2016-03-08T17:48:06Z</time>
      </trkpt>
      <trkpt lat="44.11457" lon="3.09398">
        <ele>488</ele>
        <time>2016-03-08T17:50:06Z</time>
      </trkpt>
      <trkpt lat="44.11446" lon="3.09386">
        <ele>485</ele>
        <time>2016-03-08T17:52:06Z</time>
      </trkpt>
      <trkpt lat="44.11438" lon="3.09382">
        <ele>485</ele>
        <time>2016-03-08T17:54:06Z</time>
      </trkpt>
      <trkpt lat="44.1143" lon="3.09373">
        <ele>483</ele>
        <time>2016-03-08T17:56:06Z</time>
      </trkpt>
      <trkpt lat="44.11425" lon="3.09366">
        <ele>482</ele>
        <time>2016-03-08T17:58:06Z</time>
      </trkpt>
      <trkpt lat="44.11423" lon="3.0936">
        <ele>481</ele>
        <time>2016-03-08T18:00:06Z</time>
      </trkpt>
      <trkpt lat="44.11428" lon="3.09362">
        <ele>481</ele>
        <time>2016-03-08T18:02:06Z</time>
      </trkpt>
      <trkpt lat="44.11434" lon="3.09365">
        <ele>482</ele>
        <time>2016-03-08T18:04:06Z</time>
      </trkpt>
      <trkpt lat="44.11502" lon="3.09389">
        <ele>484</ele>
        <time>2016-03-08T18:06:06Z</time>
      </trkpt>
      <trkpt lat="44.11523" lon="3.094">
        <ele>487</ele>
        <time>2016-03-08T18:08:06Z</time>
      </trkpt>
      <trkpt lat="44.11546" lon="3.0941">
        <ele>489</ele>
        <time>2016-03-08T18:10:06Z</time>
      </trkpt>
      <trkpt lat="44.11582" lon="3.09438">
        <ele>495</ele>
        <time>2016-03-08T18:12:06Z</time>
      </trkpt>
      <trkpt lat="44.11608" lon="3.09462">
        <ele>498</ele>
        <time>2016-03-08T18:14:06Z</time>
      </trkpt>
      <trkpt lat="44.1164" lon="3.09485">
        <ele>501</ele>
        <time>2016-03-08T18:16:06Z</time>
      </trkpt>
      <trkpt lat="44.1161" lon="3.09427">
        <ele>490</ele>
        <time>2016-03-08T18:18:06Z</time>
      </trkpt>
      <trkpt lat="44.11605" lon="3.09401">
        <ele>484</ele>
        <time>2016-03-08T18:20:06Z</time>
      </trkpt>
      <trkpt lat="44.11605" lon="3.09377">
        <ele>478</ele>
        <time>2016-03-08T18:22:06Z</time>
      </trkpt>
      <trkpt lat="44.11603" lon="3.09343">
        <ele>469</ele>
        <time>2016-03-08T18:24:06Z</time>
      </trkpt>
      <trkpt lat="44.11606" lon="3.09332">
        <ele>466</ele>
        <time>2016-03-08T18:26:06Z</time>
      </trkpt>
      <trkpt lat="44.11614" lon="3.09323">
        <ele>463</ele>
        <time>2016-03-08T18:28:06Z</time>
      </trkpt>
      <trkpt lat="44.11623" lon="3.09323">
        <ele>461</ele>
        <time>2016-03-08T18:30:06Z</time>
      </trkpt>
      <trkpt lat="44.11628" lon="3.09316">
        <ele>458</ele>
        <time>2016-03-08T18:32:06Z</time>
      </trkpt>
      <trkpt lat="44.11622" lon="3.09294">
        <ele>454</ele>
        <time>2016-03-08T18:34:06Z</time>
      </trkpt>
      <trkpt lat="44.11619" lon="3.09281">
        <ele>451</ele>
        <time>2016-03-08T18:36:06Z</time>
      </trkpt>
      <trkpt lat="44.11615" lon="3.09274">
        <ele>450</ele>
        <time>2016-03-08T18:38:06Z</time>
      </trkpt>
      <trkpt lat="44.11607" lon="3.09261">
        <ele>448</ele>
        <time>2016-03-08T18:40:06Z</time>
      </trkpt>
      <trkpt lat="44.116" lon="3.09252">
        <ele>448</ele>
        <time>2016-03-08T18:42:06Z</time>
      </trkpt>
      <trkpt lat="44.11589" lon="3.0924">
        <ele>447</ele>
        <time>2016-03-08T18:44:06Z</time>
      </trkpt>
      <trkpt lat="44.11583" lon="3.09233">
        <ele>447</ele>
        <time>2016-03-08T18:46:06Z</time>
      </trkpt>
      <trkpt lat="44.11574" lon="3.09226">
        <ele>445</ele>
        <time>2016-03-08T18:48:06Z</time>
      </trkpt>
      <trkpt lat="44.11567" lon="3.0922">
        <ele>444</ele>
        <time>2016-03-08T18:50:06Z</time>
      </trkpt>
      <trkpt lat="44.11559" lon="3.09219">
        <ele>444</ele>
        <time>2016-03-08T18:52:06Z</time>
      </trkpt>
      <trkpt lat="44.11551" lon="3.09218">
        <ele>444</ele>
        <time>2016-03-08T18:54:06Z</time>
      </trkpt>
      <trkpt lat="44.11546" lon="3.09215">
        <ele>444</ele>
        <time>2016-03-08T18:56:06Z</time>
      </trkpt>
      <trkpt lat="44.11543" lon="3.09212">
        <ele>443</ele>
        <time>2016-03-08T18:58:06Z</time>
      </trkpt>
      <trkpt lat="44.11542" lon="3.09207">
        <ele>442</ele>
        <time>2016-03-08T19:00:06Z</time>
      </trkpt>
      <trkpt lat="44.11543" lon="3.09202">
        <ele>441</ele>
        <time>2016-03-08T19:02:06Z</time>
      </trkpt>
      <trkpt lat="44.11545" lon="3.092">
        <ele>441</ele>
        <time>2016-03-08T19:04:06Z</time>
      </trkpt>
      <trkpt lat="44.11546" lon="3.09197">
        <ele>440</ele>
        <time>2016-03-08T19:06:06Z</time>
      </trkpt>
      <trkpt lat="44.11547" lon="3.09195">
        <ele>439</ele>
        <time>2016-03-08T19:08:06Z</time>
      </trkpt>
      <trkpt lat="44.11547" lon="3.09193">
        <ele>439</ele>
        <time>2016-03-08T19:10:06Z</time>
      </trkpt>
      <trkpt lat="44.11545" lon="3.09191">
        <ele>439</ele>
        <time>2016-03-08T19:12:06Z</time>
      </trkpt>
      <trkpt lat="44.1154" lon="3.09186">
        <ele>438</ele>
        <time>2016-03-08T19:14:06Z</time>
      </trkpt>
      <trkpt lat="44.11532" lon="3.0918">
        <ele>437</ele>
        <time>2016-03-08T19:16:06Z</time>
      </trkpt>
      <trkpt lat="44.11523" lon="3.09173">
        <ele>437</ele>
        <time>2016-03-08T19:18:06Z</time>
      </trkpt>
      <trkpt lat="44.11514" lon="3.09163">
        <ele>435</ele>
        <time>2016-03-08T19:20:06Z</time>
      </trkpt>
      <trkpt lat="44.11502" lon="3.09152">
        <ele>433</ele>
        <time>2016-03-08T19:22:06Z</time>
      </trkpt>
      <trkpt lat="44.11493" lon="3.09143">
        <ele>432</ele>
        <time>2016-03-08T19:24:06Z</time>
      </trkpt>
      <trkpt lat="44.11486" lon="3.0913">
        <ele>429</ele>
        <time>2016-03-08T19:26:06Z</time>
      </trkpt>
      <trkpt lat="44.11479" lon="3.09116">
        <ele>426</ele>
        <time>2016-03-08T19:28:06Z</time>
      </trkpt>
      <trkpt lat="44.11472" lon="3.09106">
        <ele>425</ele>
        <time>2016-03-08T19:30:06Z</time>
      </trkpt>
      <trkpt lat="44.1146" lon="3.09095">
        <ele>424</ele>
        <time>2016-03-08T19:32:06Z</time>
      </trkpt>
      <trkpt lat="44.11446" lon="3.09078">
        <ele>423</ele>
        <time>2016-03-08T19:34:06Z</time>
      </trkpt>
      <trkpt lat="44.11435" lon="3.09064">
        <ele>422</ele>
        <time>2016-03-08T19:36:06Z</time>
      </trkpt>
      <trkpt lat="44.11424" lon="3.09048">
        <ele>421</ele>
        <time>2016-03-08T19:38:06Z</time>
      </trkpt>
      <trkpt lat="44.11417" lon="3.09029">
        <ele>417</ele>
        <time>2016-03-08T19:40:06Z</time>
      </trkpt>
      <trkpt lat="44.11414" lon="3.09016">
        <ele>414</ele>
        <time>2016-03-08T19:42:06Z</time>
      </trkpt>
      <trkpt lat="44.11413" lon="3.09009">
        <ele>413</ele>
        <time>2016-03-08T19:44:06Z</time>
      </trkpt>
      <trkpt lat="44.11413" lon="3.09003">
        <ele>411</ele>
        <time>2016-03-08T19:46:06Z</time>
      </trkpt>
      <trkpt lat="44.11412" lon="3.08997">
        <ele>410</ele>
        <time>2016-03-08T19:48:06Z</time>
      </trkpt>
      <trkpt lat="44.11408" lon="3.08992">
        <ele>409</ele>
        <time>2016-03-08T19:50:06Z</time>
      </trkpt>
      <trkpt lat="44.11404" lon="3.08988">
        <ele>409</ele>
        <time>2016-03-08T19:52:06Z</time>
      </trkpt>
      <trkpt lat="44.11402" lon="3.08983">
        <ele>407</ele>
        <time>2016-03-08T19:54:06Z</time>
      </trkpt>
      <trkpt lat="44.11401" lon="3.08976">
        <ele>406</ele>
        <time>2016-03-08T19:56:06Z</time>
      </trkpt>
      <trkpt lat="44.11399" lon="3.08969">
        <ele>404</ele>
        <time>2016-03-08T19:58:06Z</time>
      </trkpt>
      <trkpt lat="44.114" lon="3.08963">
        <ele>402</ele>
        <time>2016-03-08T20:00:06Z</time>
      </trkpt>
      <trkpt lat="44.11402" lon="3.08957">
        <ele>400</ele>
        <time>2016-03-08T20:02:06Z</time>
      </trkpt>
      <trkpt lat="44.11404" lon="3.08953">
        <ele>399</ele>
        <time>2016-03-08T20:04:06Z</time>
      </trkpt>
      <trkpt lat="44.11407" lon="3.0895">
        <ele>398</ele>
        <time>2016-03-08T20:06:06Z</time>
      </trkpt>
      <trkpt lat="44.11407" lon="3.08947">
        <ele>397</ele>
        <time>2016-03-08T20:08:06Z</time>
      </trkpt>
      <trkpt lat="44.11407" lon="3.08942">
        <ele>396</ele>
        <time>2016-03-08T20:10:06Z</time>
      </trkpt>
      <trkpt lat="44.11409" lon="3.08936">
        <ele>394</ele>
        <time>2016-03-08T20:12:06Z</time>
      </trkpt>
      <trkpt lat="44.11412" lon="3.08935">
        <ele>393</ele>
        <time>2016-03-08T20:14:06Z</time>
      </trkpt>
      <trkpt lat="44.11416" lon="3.08937">
        <ele>393</ele>
        <time>2016-03-08T20:16:06Z</time>
      </trkpt>
      <trkpt lat="44.11419" lon="3.08936">
        <ele>393</ele>
        <time>2016-03-08T20:18:06Z</time>
      </trkpt>
      <trkpt lat="44.1142" lon="3.08934">
        <ele>392</ele>
        <time>2016-03-08T20:20:06Z</time>
      </trkpt>
      <trkpt lat="44.1142" lon="3.0893">
        <ele>391</ele>
        <time>2016-03-08T20:22:06Z</time>
      </trkpt>
      <trkpt lat="44.11419" lon="3.08927">
        <ele>390</ele>
        <time>2016-03-08T20:24:06Z</time>
      </trkpt>
      <trkpt lat="44.11419" lon="3.08923">
        <ele>389</ele>
        <time>2016-03-08T20:26:06Z</time>
      </trkpt>
      <trkpt lat="44.11421" lon="3.0892">
        <ele>388</ele>
        <time>2016-03-08T20:28:06Z</time>
      </trkpt>
      <trkpt lat="44.11424" lon="3.08918">
        <ele>388</ele>
        <time>2016-03-08T20:30:06Z</time>
      </trkpt>
      <trkpt lat="44.11427" lon="3.08916">
        <ele>387</ele>
        <time>2016-03-08T20:32:06Z</time>
      </trkpt>
      <trkpt lat="44.1143" lon="3.08915">
        <ele>386</ele>
        <time>2016-03-08T20:34:06Z</time>
      </trkpt>
      <trkpt lat="44.11436" lon="3.08915">
        <ele>386</ele>
        <time>2016-03-08T20:36:06Z</time>
      </trkpt>
      <trkpt lat="44.11443" lon="3.08916">
        <ele>385</ele>
        <time>2016-03-08T20:38:06Z</time>
      </trkpt>
      <trkpt lat="44.11448" lon="3.08919">
        <ele>385</ele>
        <time>2016-03-08T20:40:06Z</time>
      </trkpt>
      <trkpt lat="44.11455" lon="3.08923">
        <ele>385</ele>
        <time>2016-03-08T20:42:06Z</time>
      </trkpt>
      <trkpt lat="44.11464" lon="3.08929">
        <ele>386</ele>
        <time>2016-03-08T20:44:06Z</time>
      </trkpt>
      <trkpt lat="44.11471" lon="3.08933">
        <ele>386</ele>
        <time>2016-03-08T20:46:06Z</time>
      </trkpt>
      <trkpt lat="44.11479" lon="3.08938">
        <ele>386</ele>
        <time>2016-03-08T20:48:06Z</time>
      </trkpt>
      <trkpt lat="44.11484" lon="3.08941">
        <ele>386</ele>
        <time>2016-03-08T20:50:06Z</time>
      </trkpt>
      <trkpt lat="44.11486" lon="3.08944">
        <ele>386</ele>
        <time>2016-03-08T20:52:06Z</time>
      </trkpt>
      <trkpt lat="44.11486" lon="3.08947">
        <ele>387</ele>
        <time>2016-03-08T20:54:06Z</time>
      </trkpt>
      <trkpt lat="44.11484" lon="3.08948">
        <ele>387</ele>
        <time>2016-03-08T20:56:06Z</time>
      </trkpt>
      <trkpt lat="44.11482" lon="3.08949">
        <ele>388</ele>
        <time>2016-03-08T20:58:06Z</time>
      </trkpt>
      <trkpt lat="44.1148" lon="3.08948">
        <ele>388</ele>
        <time>2016-03-08T21:00:06Z</time>
      </trkpt>
      <trkpt lat="44.11474" lon="3.08948">
        <ele>389</ele>
        <time>2016-03-08T21:02:06Z</time>
      </trkpt>
      <trkpt lat="44.1147" lon="3.08946">
        <ele>389</ele>
        <time>2016-03-08T21:04:06Z</time>
      </trkpt>
      <trkpt lat="44.11465" lon="3.08947">
        <ele>390</ele>
        <time>2016-03-08T21:06:06Z</time>
      </trkpt>
      <trkpt lat="44.11461" lon="3.08949">
        <ele>391</ele>
        <time>2016-03-08T21:08:06Z</time>
      </trkpt>
      <trkpt lat="44.11459" lon="3.0895">
        <ele>391</ele>
        <time>2016-03-08T21:10:06Z</time>
      </trkpt>
      <trkpt lat="44.11453" lon="3.08947">
        <ele>391</ele>
        <time>2016-03-08T21:12:06Z</time>
      </trkpt>
      <trkpt lat="44.11447" lon="3.08944">
        <ele>391</ele>
        <time>2016-03-08T21:14:06Z</time>
      </trkpt>
      <trkpt lat="44.11441" lon="3.08943">
        <ele>392</ele>
        <time>2016-03-08T21:16:06Z</time>
      </trkpt>
      <trkpt lat="44.11435" lon="3.08942">
        <ele>392</ele>
        <time>2016-03-08T21:18:06Z</time>
      </trkpt>
      <trkpt lat="44.11427" lon="3.08941">
        <ele>393</ele>
        <time>2016-03-08T21:20:06Z</time>
      </trkpt>
      <trkpt lat="44.11424" lon="3.08944">
        <ele>394</ele>
        <time>2016-03-08T21:22:06Z</time>
      </trkpt>
      <trkpt lat="44.11422" lon="3.08946">
        <ele>395</ele>
        <time>2016-03-08T21:24:06Z</time>
      </trkpt>
    </trkseg>
  </trk>
</gpx>